<?xml version="1.0" encoding="UTF-8" standalone="no" ?>
<gpx xmlns="http://www.topografix.com/GPX/1/1" xmlns:xsi="http://www.w3.org/2001/XMLSchema-instance" xsi:schemaLocation="http://www.topografix.com/GPX/1/1 http://www.topografix.com/GPX/1/1/gpx.xsd" version="1.1" creator="VisuGPX - https://www.visugpx.com">
  <metadata>
    <name>Edirne-Zagreb</name>
  </metadata>
  <trk>
    <name><![CDATA[3bis_Dubrovnik à Sarajevo_272km (Ćiro)_5days - Jour 4 - De Mostar à Konjic]]></name>
    <extensions>
      <line xmlns="http://www.topografix.com/GPX/gpx_style/0/2">
        <color>880000</color>
        <width>4</width>
      </line>
    </extensions>
    <trkseg>
      <trkpt lat="43.33836" lon="17.80676">
        <ele>65.719733</ele>
        <time>2022-05-17T19:09:51.252Z</time>
      </trkpt>
      <trkpt lat="43.33835" lon="17.80622">
        <ele>65.719733</ele>
        <time>2022-05-17T19:10:04.631Z</time>
      </trkpt>
      <trkpt lat="43.3384" lon="17.80569">
        <ele>65.719733</ele>
        <time>2022-05-17T19:10:17.310Z</time>
      </trkpt>
      <trkpt lat="43.33836" lon="17.80535">
        <ele>65.763931</ele>
        <time>2022-05-17T19:10:25.844Z</time>
      </trkpt>
      <trkpt lat="43.33842" lon="17.80507">
        <ele>65.836638</ele>
        <time>2022-05-17T19:10:33.040Z</time>
      </trkpt>
      <trkpt lat="43.33844" lon="17.80498">
        <ele>65.860907</ele>
        <time>2022-05-17T19:10:35.579Z</time>
      </trkpt>
      <trkpt lat="43.33855" lon="17.80434">
        <ele>66.025448</ele>
        <time>2022-05-17T19:10:52.490Z</time>
      </trkpt>
      <trkpt lat="43.33862" lon="17.80374">
        <ele>66.175802</ele>
        <time>2022-05-17T19:11:07.745Z</time>
      </trkpt>
      <trkpt lat="43.33873" lon="17.80292">
        <ele>66.371079</ele>
        <time>2022-05-17T19:11:28.013Z</time>
      </trkpt>
      <trkpt lat="43.33887" lon="17.80258">
        <ele>66.443633</ele>
        <time>2022-05-17T19:11:37.260Z</time>
      </trkpt>
      <trkpt lat="43.33891" lon="17.80247">
        <ele>66.46615</ele>
        <time>2022-05-17T19:11:40.215Z</time>
      </trkpt>
      <trkpt lat="43.33891" lon="17.80237">
        <ele>66.484737</ele>
        <time>2022-05-17T19:11:42.592Z</time>
      </trkpt>
      <trkpt lat="43.33893" lon="17.80237">
        <ele>66.489826</ele>
        <time>2022-05-17T19:11:43.192Z</time>
      </trkpt>
      <trkpt lat="43.33904" lon="17.80239">
        <ele>66.517579</ele>
        <time>2022-05-17T19:11:46.673Z</time>
      </trkpt>
      <trkpt lat="43.33913" lon="17.80241">
        <ele>66.539646</ele>
        <time>2022-05-17T19:11:49.451Z</time>
      </trkpt>
      <trkpt lat="43.33918" lon="17.80242">
        <ele>66.553235</ele>
        <time>2022-05-17T19:11:51.179Z</time>
      </trkpt>
      <trkpt lat="43.33927" lon="17.80245">
        <ele>66.576129</ele>
        <time>2022-05-17T19:11:54.269Z</time>
      </trkpt>
      <trkpt lat="43.33945" lon="17.80252">
        <ele>66.623701</ele>
        <time>2022-05-17T19:12:00.535Z</time>
      </trkpt>
      <trkpt lat="43.33965" lon="17.80258">
        <ele>66.675857</ele>
        <time>2022-05-17T19:12:07.532Z</time>
      </trkpt>
      <trkpt lat="43.34156" lon="17.80306">
        <ele>67.271566</ele>
        <time>2022-05-17T19:13:11.864Z</time>
      </trkpt>
      <trkpt lat="43.34161" lon="17.80307">
        <ele>67.288802</ele>
        <time>2022-05-17T19:13:13.672Z</time>
      </trkpt>
      <trkpt lat="43.34163" lon="17.80321">
        <ele>67.320826</ele>
        <time>2022-05-17T19:13:16.701Z</time>
      </trkpt>
      <trkpt lat="43.34169" lon="17.80326">
        <ele>67.345436</ele>
        <time>2022-05-17T19:13:19.098Z</time>
      </trkpt>
      <trkpt lat="43.34179" lon="17.80324">
        <ele>67.374196</ele>
        <time>2022-05-17T19:13:22.284Z</time>
      </trkpt>
      <trkpt lat="43.34184" lon="17.80312">
        <ele>67.367885</ele>
        <time>2022-05-17T19:13:25.413Z</time>
      </trkpt>
      <trkpt lat="43.34191" lon="17.80314">
        <ele>67.363024</ele>
        <time>2022-05-17T19:13:27.551Z</time>
      </trkpt>
      <trkpt lat="43.34277" lon="17.80338">
        <ele>67.304243</ele>
        <time>2022-05-17T19:13:54.225Z</time>
      </trkpt>
      <trkpt lat="43.3439" lon="17.80368">
        <ele>67.33766</ele>
        <time>2022-05-17T19:14:29.623Z</time>
      </trkpt>
      <trkpt lat="43.34419" lon="17.80374">
        <ele>67.399113</ele>
        <time>2022-05-17T19:14:39.088Z</time>
      </trkpt>
      <trkpt lat="43.34433" lon="17.80377">
        <ele>67.426816</ele>
        <time>2022-05-17T19:14:42.986Z</time>
      </trkpt>
      <trkpt lat="43.34444" lon="17.80387">
        <ele>67.455182</ele>
        <time>2022-05-17T19:14:47.419Z</time>
      </trkpt>
      <trkpt lat="43.34445" lon="17.8039">
        <ele>67.459158</ele>
        <time>2022-05-17T19:14:48.082Z</time>
      </trkpt>
      <trkpt lat="43.34451" lon="17.80394">
        <ele>67.472619</ele>
        <time>2022-05-17T19:14:50.230Z</time>
      </trkpt>
      <trkpt lat="43.34455" lon="17.80392">
        <ele>67.481873</ele>
        <time>2022-05-17T19:14:51.594Z</time>
      </trkpt>
      <trkpt lat="43.3446" lon="17.80391">
        <ele>67.493224</ele>
        <time>2022-05-17T19:14:53.240Z</time>
      </trkpt>
      <trkpt lat="43.34466" lon="17.80389">
        <ele>67.505241</ele>
        <time>2022-05-17T19:14:55.048Z</time>
      </trkpt>
      <trkpt lat="43.34482" lon="17.80393">
        <ele>67.538479</ele>
        <time>2022-05-17T19:15:00.603Z</time>
      </trkpt>
      <trkpt lat="43.34488" lon="17.80394">
        <ele>67.552126</ele>
        <time>2022-05-17T19:15:02.824Z</time>
      </trkpt>
      <trkpt lat="43.34521" lon="17.80402">
        <ele>67.61947</ele>
        <time>2022-05-17T19:15:14.021Z</time>
      </trkpt>
      <trkpt lat="43.34562" lon="17.80411">
        <ele>67.847785</ele>
        <time>2022-05-17T19:15:28.435Z</time>
      </trkpt>
      <trkpt lat="43.34565" lon="17.80415">
        <ele>67.874677</ele>
        <time>2022-05-17T19:15:29.908Z</time>
      </trkpt>
      <trkpt lat="43.34569" lon="17.8042">
        <ele>67.903552</ele>
        <time>2022-05-17T19:15:31.567Z</time>
      </trkpt>
      <trkpt lat="43.34575" lon="17.80417">
        <ele>67.942489</ele>
        <time>2022-05-17T19:15:33.988Z</time>
      </trkpt>
      <trkpt lat="43.34576" lon="17.80414">
        <ele>67.953107</ele>
        <time>2022-05-17T19:15:34.666Z</time>
      </trkpt>
      <trkpt lat="43.34576" lon="17.80412">
        <ele>67.961893</ele>
        <time>2022-05-17T19:15:35.230Z</time>
      </trkpt>
      <trkpt lat="43.34577" lon="17.80405">
        <ele>67.9958</ele>
        <time>2022-05-17T19:15:37.412Z</time>
      </trkpt>
      <trkpt lat="43.34577" lon="17.80402">
        <ele>68.007529</ele>
        <time>2022-05-17T19:15:38.156Z</time>
      </trkpt>
      <trkpt lat="43.34578" lon="17.80381">
        <ele>68.094783</ele>
        <time>2022-05-17T19:15:43.280Z</time>
      </trkpt>
      <trkpt lat="43.34587" lon="17.80318">
        <ele>68.361872</ele>
        <time>2022-05-17T19:15:59.419Z</time>
      </trkpt>
      <trkpt lat="43.34592" lon="17.8029">
        <ele>68.483422</ele>
        <time>2022-05-17T19:16:06.888Z</time>
      </trkpt>
      <trkpt lat="43.34598" lon="17.80247">
        <ele>68.662592</ele>
        <time>2022-05-17T19:16:17.744Z</time>
      </trkpt>
      <trkpt lat="43.34604" lon="17.80248">
        <ele>68.672275</ele>
        <time>2022-05-17T19:16:19.811Z</time>
      </trkpt>
      <trkpt lat="43.34646" lon="17.80259">
        <ele>68.740532</ele>
        <time>2022-05-17T19:16:34.254Z</time>
      </trkpt>
      <trkpt lat="43.34673" lon="17.80265">
        <ele>68.783836</ele>
        <time>2022-05-17T19:16:43.100Z</time>
      </trkpt>
      <trkpt lat="43.34676" lon="17.80247">
        <ele>68.80572</ele>
        <time>2022-05-17T19:16:47.519Z</time>
      </trkpt>
      <trkpt lat="43.34684" lon="17.80249">
        <ele>68.818682</ele>
        <time>2022-05-17T19:16:50.126Z</time>
      </trkpt>
      <trkpt lat="43.34742" lon="17.80282">
        <ele>68.918491</ele>
        <time>2022-05-17T19:17:09.484Z</time>
      </trkpt>
      <trkpt lat="43.34744" lon="17.80277">
        <ele>68.924943</ele>
        <time>2022-05-17T19:17:10.691Z</time>
      </trkpt>
      <trkpt lat="43.34746" lon="17.80264">
        <ele>68.940261</ele>
        <time>2022-05-17T19:17:13.619Z</time>
      </trkpt>
      <trkpt lat="43.34757" lon="17.80203">
        <ele>68.987571</ele>
        <time>2022-05-17T19:17:27.475Z</time>
      </trkpt>
      <trkpt lat="43.34767" lon="17.80207">
        <ele>68.997637</ele>
        <time>2022-05-17T19:17:30.602Z</time>
      </trkpt>
      <trkpt lat="43.34769" lon="17.80208">
        <ele>68.999504</ele>
        <time>2022-05-17T19:17:31.184Z</time>
      </trkpt>
      <trkpt lat="43.34775" lon="17.8021">
        <ele>69.005528</ele>
        <time>2022-05-17T19:17:32.984Z</time>
      </trkpt>
      <trkpt lat="43.34788" lon="17.80215">
        <ele>69.019636</ele>
        <time>2022-05-17T19:17:37.433Z</time>
      </trkpt>
      <trkpt lat="43.34795" lon="17.80218">
        <ele>69.026508</ele>
        <time>2022-05-17T19:17:39.643Z</time>
      </trkpt>
      <trkpt lat="43.34808" lon="17.80227">
        <ele>69.040785</ele>
        <time>2022-05-17T19:17:44.222Z</time>
      </trkpt>
      <trkpt lat="43.34813" lon="17.80228">
        <ele>69.045925</ele>
        <time>2022-05-17T19:17:45.806Z</time>
      </trkpt>
      <trkpt lat="43.34842" lon="17.80236">
        <ele>69.07522</ele>
        <time>2022-05-17T19:17:55.253Z</time>
      </trkpt>
      <trkpt lat="43.34845" lon="17.80213">
        <ele>69.092316</ele>
        <time>2022-05-17T19:18:00.706Z</time>
      </trkpt>
      <trkpt lat="43.34868" lon="17.8022">
        <ele>69.115567</ele>
        <time>2022-05-17T19:18:08.108Z</time>
      </trkpt>
      <trkpt lat="43.34903" lon="17.80231">
        <ele>69.191723</ele>
        <time>2022-05-17T19:18:20.094Z</time>
      </trkpt>
      <trkpt lat="43.34913" lon="17.80235">
        <ele>69.218924</ele>
        <time>2022-05-17T19:18:23.885Z</time>
      </trkpt>
      <trkpt lat="43.34932" lon="17.80241">
        <ele>69.268646</ele>
        <time>2022-05-17T19:18:30.495Z</time>
      </trkpt>
      <trkpt lat="43.34936" lon="17.80231">
        <ele>69.289025</ele>
        <time>2022-05-17T19:18:33.286Z</time>
      </trkpt>
      <trkpt lat="43.34936" lon="17.80229">
        <ele>69.292991</ele>
        <time>2022-05-17T19:18:33.859Z</time>
      </trkpt>
      <trkpt lat="43.34938" lon="17.80229">
        <ele>69.297327</ele>
        <time>2022-05-17T19:18:34.471Z</time>
      </trkpt>
      <trkpt lat="43.34955" lon="17.80231">
        <ele>69.339509</ele>
        <time>2022-05-17T19:18:40.044Z</time>
      </trkpt>
      <trkpt lat="43.34957" lon="17.80231">
        <ele>69.346666</ele>
        <time>2022-05-17T19:18:40.934Z</time>
      </trkpt>
      <trkpt lat="43.34963" lon="17.80196">
        <ele>69.414027</ele>
        <time>2022-05-17T19:18:49.779Z</time>
      </trkpt>
      <trkpt lat="43.34968" lon="17.80168">
        <ele>69.46788</ele>
        <time>2022-05-17T19:18:56.502Z</time>
      </trkpt>
      <trkpt lat="43.34969" lon="17.80164">
        <ele>69.475324</ele>
        <time>2022-05-17T19:18:57.481Z</time>
      </trkpt>
      <trkpt lat="43.3498" lon="17.80168">
        <ele>69.505991</ele>
        <time>2022-05-17T19:19:01.476Z</time>
      </trkpt>
      <trkpt lat="43.35047" lon="17.80177">
        <ele>69.423989</ele>
        <time>2022-05-17T19:19:22.113Z</time>
      </trkpt>
      <trkpt lat="43.35052" lon="17.80179">
        <ele>69.401759</ele>
        <time>2022-05-17T19:19:23.619Z</time>
      </trkpt>
      <trkpt lat="43.35109" lon="17.802">
        <ele>69.141693</ele>
        <time>2022-05-17T19:19:40.842Z</time>
      </trkpt>
      <trkpt lat="43.35117" lon="17.80202">
        <ele>69.105922</ele>
        <time>2022-05-17T19:19:43.121Z</time>
      </trkpt>
      <trkpt lat="43.35121" lon="17.80188">
        <ele>69.058868</ele>
        <time>2022-05-17T19:19:46.076Z</time>
      </trkpt>
      <trkpt lat="43.35122" lon="17.80181">
        <ele>69.034158</ele>
        <time>2022-05-17T19:19:48.284Z</time>
      </trkpt>
      <trkpt lat="43.35126" lon="17.80164">
        <ele>68.978032</ele>
        <time>2022-05-17T19:19:52.160Z</time>
      </trkpt>
      <trkpt lat="43.35126" lon="17.80163">
        <ele>68.975453</ele>
        <time>2022-05-17T19:19:52.389Z</time>
      </trkpt>
      <trkpt lat="43.35127" lon="17.80155">
        <ele>68.949096</ele>
        <time>2022-05-17T19:19:54.618Z</time>
      </trkpt>
      <trkpt lat="43.35129" lon="17.80147">
        <ele>68.923962</ele>
        <time>2022-05-17T19:19:56.722Z</time>
      </trkpt>
      <trkpt lat="43.3513" lon="17.80144">
        <ele>68.914803</ele>
        <time>2022-05-17T19:19:57.511Z</time>
      </trkpt>
      <trkpt lat="43.35184" lon="17.80165">
        <ele>68.549277</ele>
        <time>2022-05-17T19:20:13.316Z</time>
      </trkpt>
      <trkpt lat="43.35212" lon="17.80176">
        <ele>68.30207</ele>
        <time>2022-05-17T19:20:21.353Z</time>
      </trkpt>
      <trkpt lat="43.35222" lon="17.8018">
        <ele>68.204899</ele>
        <time>2022-05-17T19:20:24.521Z</time>
      </trkpt>
      <trkpt lat="43.35224" lon="17.80189">
        <ele>68.152798</ele>
        <time>2022-05-17T19:20:26.159Z</time>
      </trkpt>
      <trkpt lat="43.3523" lon="17.80195">
        <ele>68.086172</ele>
        <time>2022-05-17T19:20:28.321Z</time>
      </trkpt>
      <trkpt lat="43.35241" lon="17.80189">
        <ele>67.986378</ele>
        <time>2022-05-17T19:20:31.740Z</time>
      </trkpt>
      <trkpt lat="43.35256" lon="17.80196">
        <ele>67.851635</ele>
        <time>2022-05-17T19:20:36.102Z</time>
      </trkpt>
      <trkpt lat="43.35311" lon="17.80225">
        <ele>67.347521</ele>
        <time>2022-05-17T19:20:52.543Z</time>
      </trkpt>
      <trkpt lat="43.35319" lon="17.80229">
        <ele>67.277283</ele>
        <time>2022-05-17T19:20:54.703Z</time>
      </trkpt>
      <trkpt lat="43.35418" lon="17.80279">
        <ele>65.966747</ele>
        <time>2022-05-17T19:21:21.730Z</time>
      </trkpt>
      <trkpt lat="43.35465" lon="17.80305">
        <ele>65.329876</ele>
        <time>2022-05-17T19:21:34.872Z</time>
      </trkpt>
      <trkpt lat="43.35466" lon="17.80306">
        <ele>65.309015</ele>
        <time>2022-05-17T19:21:35.310Z</time>
      </trkpt>
      <trkpt lat="43.35481" lon="17.80317">
        <ele>65.10221</ele>
        <time>2022-05-17T19:21:39.668Z</time>
      </trkpt>
      <trkpt lat="43.35485" lon="17.8032">
        <ele>65.046446</ele>
        <time>2022-05-17T19:21:40.821Z</time>
      </trkpt>
      <trkpt lat="43.35492" lon="17.8031">
        <ele>64.994381</ele>
        <time>2022-05-17T19:21:43.502Z</time>
      </trkpt>
      <trkpt lat="43.35626" lon="17.80204">
        <ele>64.527346</ele>
        <time>2022-05-17T19:22:29.864Z</time>
      </trkpt>
      <trkpt lat="43.35663" lon="17.80161">
        <ele>64.512937</ele>
        <time>2022-05-17T19:22:46.050Z</time>
      </trkpt>
      <trkpt lat="43.35667" lon="17.80163">
        <ele>64.51821</ele>
        <time>2022-05-17T19:22:47.486Z</time>
      </trkpt>
      <trkpt lat="43.35673" lon="17.8016">
        <ele>64.52565</ele>
        <time>2022-05-17T19:22:49.616Z</time>
      </trkpt>
      <trkpt lat="43.35675" lon="17.80152">
        <ele>64.533049</ele>
        <time>2022-05-17T19:22:51.805Z</time>
      </trkpt>
      <trkpt lat="43.35695" lon="17.80147">
        <ele>64.557429</ele>
        <time>2022-05-17T19:22:58.543Z</time>
      </trkpt>
      <trkpt lat="43.35713" lon="17.80134">
        <ele>64.580529</ele>
        <time>2022-05-17T19:23:05.056Z</time>
      </trkpt>
      <trkpt lat="43.35739" lon="17.80121">
        <ele>64.613455</ele>
        <time>2022-05-17T19:23:14.025Z</time>
      </trkpt>
      <trkpt lat="43.35759" lon="17.8011">
        <ele>64.63936</ele>
        <time>2022-05-17T19:23:21.015Z</time>
      </trkpt>
      <trkpt lat="43.35821" lon="17.8009">
        <ele>64.419177</ele>
        <time>2022-05-17T19:23:40.494Z</time>
      </trkpt>
      <trkpt lat="43.35831" lon="17.80089">
        <ele>64.290802</ele>
        <time>2022-05-17T19:23:43.481Z</time>
      </trkpt>
      <trkpt lat="43.3592" lon="17.80112">
        <ele>63.150955</ele>
        <time>2022-05-17T19:24:07.840Z</time>
      </trkpt>
      <trkpt lat="43.35939" lon="17.80123">
        <ele>62.889029</ele>
        <time>2022-05-17T19:24:12.847Z</time>
      </trkpt>
      <trkpt lat="43.35971" lon="17.80141">
        <ele>62.450736</ele>
        <time>2022-05-17T19:24:21.160Z</time>
      </trkpt>
      <trkpt lat="43.35992" lon="17.80169">
        <ele>61.753128</ele>
        <time>2022-05-17T19:24:28.156Z</time>
      </trkpt>
      <trkpt lat="43.35998" lon="17.80184">
        <ele>61.429176</ele>
        <time>2022-05-17T19:24:31.328Z</time>
      </trkpt>
      <trkpt lat="43.36004" lon="17.802">
        <ele>61.105633</ele>
        <time>2022-05-17T19:24:34.486Z</time>
      </trkpt>
      <trkpt lat="43.3604" lon="17.80289">
        <ele>59.250237</ele>
        <time>2022-05-17T19:24:51.951Z</time>
      </trkpt>
      <trkpt lat="43.36106" lon="17.80329">
        <ele>57.625842</ele>
        <time>2022-05-17T19:25:08.824Z</time>
      </trkpt>
      <trkpt lat="43.36134" lon="17.80368">
        <ele>57.063074</ele>
        <time>2022-05-17T19:25:18.103Z</time>
      </trkpt>
      <trkpt lat="43.3615" lon="17.80378">
        <ele>56.814495</ele>
        <time>2022-05-17T19:25:22.545Z</time>
      </trkpt>
      <trkpt lat="43.3618" lon="17.80415">
        <ele>56.241483</ele>
        <time>2022-05-17T19:25:33.429Z</time>
      </trkpt>
      <trkpt lat="43.36245" lon="17.80456">
        <ele>55.336561</ele>
        <time>2022-05-17T19:25:53.811Z</time>
      </trkpt>
      <trkpt lat="43.36268" lon="17.80482">
        <ele>55.358994</ele>
        <time>2022-05-17T19:26:02.946Z</time>
      </trkpt>
      <trkpt lat="43.3628" lon="17.80495">
        <ele>55.370411</ele>
        <time>2022-05-17T19:26:07.573Z</time>
      </trkpt>
      <trkpt lat="43.36379" lon="17.80627">
        <ele>55.475159</ele>
        <time>2022-05-17T19:26:52.626Z</time>
      </trkpt>
      <trkpt lat="43.36442" lon="17.80746">
        <ele>55.569122</ele>
        <time>2022-05-17T19:27:27.563Z</time>
      </trkpt>
      <trkpt lat="43.36459" lon="17.80787">
        <ele>55.599741</ele>
        <time>2022-05-17T19:27:38.148Z</time>
      </trkpt>
      <trkpt lat="43.36481" lon="17.8085">
        <ele>55.586335</ele>
        <time>2022-05-17T19:27:53.054Z</time>
      </trkpt>
      <trkpt lat="43.36496" lon="17.80919">
        <ele>55.505674</ele>
        <time>2022-05-17T19:28:08.520Z</time>
      </trkpt>
      <trkpt lat="43.36514" lon="17.81064">
        <ele>55.353458</ele>
        <time>2022-05-17T19:28:41.517Z</time>
      </trkpt>
      <trkpt lat="43.36541" lon="17.81187">
        <ele>55.604339</ele>
        <time>2022-05-17T19:29:11.117Z</time>
      </trkpt>
      <trkpt lat="43.36576" lon="17.81396">
        <ele>56.184785</ele>
        <time>2022-05-17T19:30:03.890Z</time>
      </trkpt>
      <trkpt lat="43.36605" lon="17.81593">
        <ele>56.890078</ele>
        <time>2022-05-17T19:30:53.094Z</time>
      </trkpt>
      <trkpt lat="43.36623" lon="17.8171">
        <ele>57.289615</ele>
        <time>2022-05-17T19:31:22.534Z</time>
      </trkpt>
      <trkpt lat="43.36632" lon="17.8177">
        <ele>57.491642</ele>
        <time>2022-05-17T19:31:37.413Z</time>
      </trkpt>
      <trkpt lat="43.36677" lon="17.81883">
        <ele>57.994293</ele>
        <time>2022-05-17T19:32:09.230Z</time>
      </trkpt>
      <trkpt lat="43.36684" lon="17.81934">
        <ele>58.197706</ele>
        <time>2022-05-17T19:32:21.975Z</time>
      </trkpt>
      <trkpt lat="43.36684" lon="17.81983">
        <ele>58.391609</ele>
        <time>2022-05-17T19:32:34.797Z</time>
      </trkpt>
      <trkpt lat="43.36697" lon="17.82057">
        <ele>58.584792</ele>
        <time>2022-05-17T19:32:53.976Z</time>
      </trkpt>
      <trkpt lat="43.36713" lon="17.82104">
        <ele>58.664768</ele>
        <time>2022-05-17T19:33:06.278Z</time>
      </trkpt>
      <trkpt lat="43.36746" lon="17.82171">
        <ele>58.791158</ele>
        <time>2022-05-17T19:33:25.292Z</time>
      </trkpt>
      <trkpt lat="43.36763" lon="17.82235">
        <ele>58.897638</ele>
        <time>2022-05-17T19:33:40.030Z</time>
      </trkpt>
      <trkpt lat="43.36776" lon="17.82346">
        <ele>58.920972</ele>
        <time>2022-05-17T19:34:05.045Z</time>
      </trkpt>
      <trkpt lat="43.368" lon="17.82447">
        <ele>58.940713</ele>
        <time>2022-05-17T19:34:28.990Z</time>
      </trkpt>
      <trkpt lat="43.36817" lon="17.82511">
        <ele>59.10374</ele>
        <time>2022-05-17T19:34:45.670Z</time>
      </trkpt>
      <trkpt lat="43.36827" lon="17.82569">
        <ele>59.348775</ele>
        <time>2022-05-17T19:35:00.112Z</time>
      </trkpt>
      <trkpt lat="43.36833" lon="17.82665">
        <ele>59.747053</ele>
        <time>2022-05-17T19:35:23.592Z</time>
      </trkpt>
      <trkpt lat="43.36831" lon="17.82714">
        <ele>59.949756</ele>
        <time>2022-05-17T19:35:36.208Z</time>
      </trkpt>
      <trkpt lat="43.36823" lon="17.82855">
        <ele>61.903504</ele>
        <time>2022-05-17T19:36:16.797Z</time>
      </trkpt>
      <trkpt lat="43.36825" lon="17.8292">
        <ele>62.827526</ele>
        <time>2022-05-17T19:36:37.453Z</time>
      </trkpt>
      <trkpt lat="43.3683" lon="17.82944">
        <ele>63.179914</ele>
        <time>2022-05-17T19:36:45.461Z</time>
      </trkpt>
      <trkpt lat="43.36841" lon="17.82965">
        <ele>63.589255</ele>
        <time>2022-05-17T19:36:54.166Z</time>
      </trkpt>
      <trkpt lat="43.36943" lon="17.83074">
        <ele>67.881559</ele>
        <time>2022-05-17T19:38:01.947Z</time>
      </trkpt>
      <trkpt lat="43.37003" lon="17.83132">
        <ele>69.874572</ele>
        <time>2022-05-17T19:38:37.224Z</time>
      </trkpt>
      <trkpt lat="43.37036" lon="17.8323">
        <ele>71.133934</ele>
        <time>2022-05-17T19:39:10.125Z</time>
      </trkpt>
      <trkpt lat="43.37074" lon="17.83329">
        <ele>72.363439</ele>
        <time>2022-05-17T19:39:39.017Z</time>
      </trkpt>
      <trkpt lat="43.37098" lon="17.83367">
        <ele>72.448915</ele>
        <time>2022-05-17T19:39:50.498Z</time>
      </trkpt>
      <trkpt lat="43.37108" lon="17.83381">
        <ele>72.482487</ele>
        <time>2022-05-17T19:39:55.059Z</time>
      </trkpt>
      <trkpt lat="43.37132" lon="17.83465">
        <ele>72.637484</ele>
        <time>2022-05-17T19:40:17.416Z</time>
      </trkpt>
      <trkpt lat="43.37161" lon="17.83539">
        <ele>72.734445</ele>
        <time>2022-05-17T19:40:37.910Z</time>
      </trkpt>
      <trkpt lat="43.37208" lon="17.83691">
        <ele>71.839195</ele>
        <time>2022-05-17T19:41:14.143Z</time>
      </trkpt>
      <trkpt lat="43.37217" lon="17.83702">
        <ele>71.74527</ele>
        <time>2022-05-17T19:41:17.704Z</time>
      </trkpt>
      <trkpt lat="43.37222" lon="17.83725">
        <ele>71.617861</ele>
        <time>2022-05-17T19:41:22.120Z</time>
      </trkpt>
      <trkpt lat="43.37238" lon="17.83799">
        <ele>70.603704</ele>
        <time>2022-05-17T19:41:36.464Z</time>
      </trkpt>
      <trkpt lat="43.37253" lon="17.83858">
        <ele>69.3657</ele>
        <time>2022-05-17T19:41:47.158Z</time>
      </trkpt>
      <trkpt lat="43.37279" lon="17.83935">
        <ele>67.678529</ele>
        <time>2022-05-17T19:42:01.259Z</time>
      </trkpt>
      <trkpt lat="43.37295" lon="17.83973">
        <ele>66.805769</ele>
        <time>2022-05-17T19:42:08.480Z</time>
      </trkpt>
      <trkpt lat="43.37299" lon="17.83982">
        <ele>66.603516</ele>
        <time>2022-05-17T19:42:10.149Z</time>
      </trkpt>
      <trkpt lat="43.37318" lon="17.84026">
        <ele>65.82647</ele>
        <time>2022-05-17T19:42:18.686Z</time>
      </trkpt>
      <trkpt lat="43.3733" lon="17.84048">
        <ele>65.430195</ele>
        <time>2022-05-17T19:42:23.283Z</time>
      </trkpt>
      <trkpt lat="43.37376" lon="17.84109">
        <ele>64.142859</ele>
        <time>2022-05-17T19:42:38.609Z</time>
      </trkpt>
      <trkpt lat="43.37448" lon="17.8416">
        <ele>63.03311</ele>
        <time>2022-05-17T19:43:00.279Z</time>
      </trkpt>
      <trkpt lat="43.37518" lon="17.842">
        <ele>63.623668</ele>
        <time>2022-05-17T19:43:26.372Z</time>
      </trkpt>
      <trkpt lat="43.37653" lon="17.84244">
        <ele>65.545996</ele>
        <time>2022-05-17T19:44:22.132Z</time>
      </trkpt>
      <trkpt lat="43.37692" lon="17.84283">
        <ele>66.672068</ele>
        <time>2022-05-17T19:44:43.523Z</time>
      </trkpt>
      <trkpt lat="43.37741" lon="17.84358">
        <ele>68.414311</ele>
        <time>2022-05-17T19:45:18.099Z</time>
      </trkpt>
      <trkpt lat="43.378" lon="17.8442">
        <ele>70.611939</ele>
        <time>2022-05-17T19:45:54.121Z</time>
      </trkpt>
      <trkpt lat="43.37884" lon="17.84522">
        <ele>73.944708</ele>
        <time>2022-05-17T19:46:48.194Z</time>
      </trkpt>
      <trkpt lat="43.3797" lon="17.84591">
        <ele>75.727128</ele>
        <time>2022-05-17T19:47:33.180Z</time>
      </trkpt>
      <trkpt lat="43.38064" lon="17.8465">
        <ele>77.167429</ele>
        <time>2022-05-17T19:48:10.003Z</time>
      </trkpt>
      <trkpt lat="43.38142" lon="17.847">
        <ele>77.266923</ele>
        <time>2022-05-17T19:48:37.879Z</time>
      </trkpt>
      <trkpt lat="43.38261" lon="17.8479">
        <ele>77.308124</ele>
        <time>2022-05-17T19:49:17.730Z</time>
      </trkpt>
      <trkpt lat="43.38345" lon="17.84884">
        <ele>77.245179</ele>
        <time>2022-05-17T19:49:52.734Z</time>
      </trkpt>
      <trkpt lat="43.38374" lon="17.84909">
        <ele>77.191185</ele>
        <time>2022-05-17T19:50:03.396Z</time>
      </trkpt>
      <trkpt lat="43.38517" lon="17.84983">
        <ele>76.914951</ele>
        <time>2022-05-17T19:50:49.434Z</time>
      </trkpt>
      <trkpt lat="43.38522" lon="17.84986">
        <ele>76.89354</ele>
        <time>2022-05-17T19:50:50.901Z</time>
      </trkpt>
      <trkpt lat="43.38688" lon="17.8507">
        <ele>76.058945</ele>
        <time>2022-05-17T19:51:40.923Z</time>
      </trkpt>
      <trkpt lat="43.38777" lon="17.85123">
        <ele>76.188961</ele>
        <time>2022-05-17T19:52:10.860Z</time>
      </trkpt>
      <trkpt lat="43.38837" lon="17.85142">
        <ele>76.27199</ele>
        <time>2022-05-17T19:52:31.864Z</time>
      </trkpt>
      <trkpt lat="43.38931" lon="17.85159">
        <ele>76.554731</ele>
        <time>2022-05-17T19:53:04.623Z</time>
      </trkpt>
      <trkpt lat="43.38989" lon="17.85185">
        <ele>76.753694</ele>
        <time>2022-05-17T19:53:24.413Z</time>
      </trkpt>
      <trkpt lat="43.39046" lon="17.85226">
        <ele>76.943323</ele>
        <time>2022-05-17T19:53:44.576Z</time>
      </trkpt>
      <trkpt lat="43.3913" lon="17.85302">
        <ele>77.174484</ele>
        <time>2022-05-17T19:54:16.352Z</time>
      </trkpt>
      <trkpt lat="43.39295" lon="17.85377">
        <ele>77.985359</ele>
        <time>2022-05-17T19:55:15.260Z</time>
      </trkpt>
      <trkpt lat="43.39316" lon="17.85393">
        <ele>78.119676</ele>
        <time>2022-05-17T19:55:23.486Z</time>
      </trkpt>
      <trkpt lat="43.3945" lon="17.85471">
        <ele>79.148741</ele>
        <time>2022-05-17T19:56:15.707Z</time>
      </trkpt>
      <trkpt lat="43.39738" lon="17.85559">
        <ele>80.647774</ele>
        <time>2022-05-17T19:57:58.715Z</time>
      </trkpt>
      <trkpt lat="43.39964" lon="17.8566">
        <ele>79.361515</ele>
        <time>2022-05-17T19:59:04.149Z</time>
      </trkpt>
      <trkpt lat="43.4002" lon="17.85693">
        <ele>78.908687</ele>
        <time>2022-05-17T19:59:20.889Z</time>
      </trkpt>
      <trkpt lat="43.40104" lon="17.85753">
        <ele>79.005303</ele>
        <time>2022-05-17T19:59:49.523Z</time>
      </trkpt>
      <trkpt lat="43.40135" lon="17.85784">
        <ele>79.11986</ele>
        <time>2022-05-17T20:00:02.403Z</time>
      </trkpt>
      <trkpt lat="43.40144" lon="17.85797">
        <ele>79.159173</ele>
        <time>2022-05-17T20:00:07.028Z</time>
      </trkpt>
      <trkpt lat="43.40168" lon="17.85837">
        <ele>79.271702</ele>
        <time>2022-05-17T20:00:20.623Z</time>
      </trkpt>
      <trkpt lat="43.40178" lon="17.85854">
        <ele>79.317389</ele>
        <time>2022-05-17T20:00:26.314Z</time>
      </trkpt>
      <trkpt lat="43.4021" lon="17.85901">
        <ele>79.397827</ele>
        <time>2022-05-17T20:00:43.559Z</time>
      </trkpt>
      <trkpt lat="43.40247" lon="17.85936">
        <ele>79.474605</ele>
        <time>2022-05-17T20:00:59.221Z</time>
      </trkpt>
      <trkpt lat="43.40283" lon="17.85971">
        <ele>79.550327</ele>
        <time>2022-05-17T20:01:12.689Z</time>
      </trkpt>
      <trkpt lat="43.40298" lon="17.85984">
        <ele>79.580708</ele>
        <time>2022-05-17T20:01:17.570Z</time>
      </trkpt>
      <trkpt lat="43.40343" lon="17.86029">
        <ele>79.380942</ele>
        <time>2022-05-17T20:01:32.808Z</time>
      </trkpt>
      <trkpt lat="43.40346" lon="17.86032">
        <ele>79.349503</ele>
        <time>2022-05-17T20:01:33.903Z</time>
      </trkpt>
      <trkpt lat="43.40365" lon="17.86072">
        <ele>79.07066</ele>
        <time>2022-05-17T20:01:43.298Z</time>
      </trkpt>
      <trkpt lat="43.40382" lon="17.86129">
        <ele>78.712027</ele>
        <time>2022-05-17T20:01:55.155Z</time>
      </trkpt>
      <trkpt lat="43.40398" lon="17.86183">
        <ele>78.376848</ele>
        <time>2022-05-17T20:02:06.312Z</time>
      </trkpt>
      <trkpt lat="43.40462" lon="17.86424">
        <ele>78.628059</ele>
        <time>2022-05-17T20:03:05.571Z</time>
      </trkpt>
      <trkpt lat="43.40478" lon="17.86455">
        <ele>78.825115</ele>
        <time>2022-05-17T20:03:16.184Z</time>
      </trkpt>
      <trkpt lat="43.40548" lon="17.86525">
        <ele>80.047484</ele>
        <time>2022-05-17T20:03:51.253Z</time>
      </trkpt>
      <trkpt lat="43.40638" lon="17.86637">
        <ele>81.554349</ele>
        <time>2022-05-17T20:04:38.737Z</time>
      </trkpt>
      <trkpt lat="43.40648" lon="17.86649">
        <ele>81.673683</ele>
        <time>2022-05-17T20:04:44.117Z</time>
      </trkpt>
      <trkpt lat="43.40702" lon="17.86726">
        <ele>82.362321</ele>
        <time>2022-05-17T20:05:13.407Z</time>
      </trkpt>
      <trkpt lat="43.40796" lon="17.86848">
        <ele>82.263377</ele>
        <time>2022-05-17T20:05:52.997Z</time>
      </trkpt>
      <trkpt lat="43.40828" lon="17.86878">
        <ele>81.999181</ele>
        <time>2022-05-17T20:06:03.656Z</time>
      </trkpt>
      <trkpt lat="43.40865" lon="17.86902">
        <ele>81.721144</ele>
        <time>2022-05-17T20:06:14.289Z</time>
      </trkpt>
      <trkpt lat="43.40814" lon="17.87058">
        <ele>80.89669</ele>
        <time>2022-05-17T20:06:46.131Z</time>
      </trkpt>
      <trkpt lat="43.40808" lon="17.87123">
        <ele>80.576965</ele>
        <time>2022-05-17T20:07:00.654Z</time>
      </trkpt>
      <trkpt lat="43.40807" lon="17.8713">
        <ele>80.546151</ele>
        <time>2022-05-17T20:07:02.162Z</time>
      </trkpt>
      <trkpt lat="43.40807" lon="17.87152">
        <ele>80.438395</ele>
        <time>2022-05-17T20:07:07.540Z</time>
      </trkpt>
      <trkpt lat="43.40806" lon="17.87278">
        <ele>81.579088</ele>
        <time>2022-05-17T20:07:41.801Z</time>
      </trkpt>
      <trkpt lat="43.40808" lon="17.87324">
        <ele>82.058225</ele>
        <time>2022-05-17T20:07:55.295Z</time>
      </trkpt>
      <trkpt lat="43.40805" lon="17.87434">
        <ele>83.180978</ele>
        <time>2022-05-17T20:08:29.888Z</time>
      </trkpt>
      <trkpt lat="43.40804" lon="17.87456">
        <ele>83.37928</ele>
        <time>2022-05-17T20:08:36.439Z</time>
      </trkpt>
      <trkpt lat="43.40813" lon="17.87458">
        <ele>83.487005</ele>
        <time>2022-05-17T20:08:39.949Z</time>
      </trkpt>
      <trkpt lat="43.40835" lon="17.87446">
        <ele>83.782761</ele>
        <time>2022-05-17T20:08:49.254Z</time>
      </trkpt>
      <trkpt lat="43.40847" lon="17.87445">
        <ele>83.938462</ele>
        <time>2022-05-17T20:08:54.102Z</time>
      </trkpt>
      <trkpt lat="43.40863" lon="17.87449">
        <ele>84.137331</ele>
        <time>2022-05-17T20:09:00.016Z</time>
      </trkpt>
      <trkpt lat="43.40878" lon="17.87453">
        <ele>84.326411</ele>
        <time>2022-05-17T20:09:05.626Z</time>
      </trkpt>
      <trkpt lat="43.40908" lon="17.87479">
        <ele>84.764507</ele>
        <time>2022-05-17T20:09:18.421Z</time>
      </trkpt>
      <trkpt lat="43.40917" lon="17.87481">
        <ele>84.883119</ele>
        <time>2022-05-17T20:09:21.797Z</time>
      </trkpt>
      <trkpt lat="43.40975" lon="17.87495">
        <ele>85.559992</ele>
        <time>2022-05-17T20:09:41.551Z</time>
      </trkpt>
      <trkpt lat="43.40983" lon="17.87498">
        <ele>85.648987</ele>
        <time>2022-05-17T20:09:44.534Z</time>
      </trkpt>
      <trkpt lat="43.41055" lon="17.87513">
        <ele>86.438856</ele>
        <time>2022-05-17T20:10:11.615Z</time>
      </trkpt>
      <trkpt lat="43.41115" lon="17.87528">
        <ele>87.1056</ele>
        <time>2022-05-17T20:10:35.504Z</time>
      </trkpt>
      <trkpt lat="43.41172" lon="17.87541">
        <ele>87.83985</ele>
        <time>2022-05-17T20:10:57.955Z</time>
      </trkpt>
      <trkpt lat="43.41233" lon="17.87558">
        <ele>88.647657</ele>
        <time>2022-05-17T20:11:21.871Z</time>
      </trkpt>
      <trkpt lat="43.41619" lon="17.87646">
        <ele>93.550554</ele>
        <time>2022-05-17T20:13:50.661Z</time>
      </trkpt>
      <trkpt lat="43.41654" lon="17.87645">
        <ele>93.994194</ele>
        <time>2022-05-17T20:14:04.310Z</time>
      </trkpt>
      <trkpt lat="43.41696" lon="17.87621">
        <ele>94.567556</ele>
        <time>2022-05-17T20:14:21.870Z</time>
      </trkpt>
      <trkpt lat="43.42069" lon="17.87299">
        <ele>99.827841</ele>
        <time>2022-05-17T20:17:10.471Z</time>
      </trkpt>
      <trkpt lat="43.42125" lon="17.87252">
        <ele>100.358481</ele>
        <time>2022-05-17T20:17:32.344Z</time>
      </trkpt>
      <trkpt lat="43.42648" lon="17.86797">
        <ele>101.210814</ele>
        <time>2022-05-17T20:20:47.459Z</time>
      </trkpt>
      <trkpt lat="43.42678" lon="17.86772">
        <ele>101.349182</ele>
        <time>2022-05-17T20:20:59.062Z</time>
      </trkpt>
      <trkpt lat="43.42978" lon="17.86515">
        <ele>103.89108</ele>
        <time>2022-05-17T20:23:06.090Z</time>
      </trkpt>
      <trkpt lat="43.43057" lon="17.86447">
        <ele>104.287612</ele>
        <time>2022-05-17T20:23:37.442Z</time>
      </trkpt>
      <trkpt lat="43.43174" lon="17.86345">
        <ele>104.25662</ele>
        <time>2022-05-17T20:24:19.440Z</time>
      </trkpt>
      <trkpt lat="43.4323" lon="17.86297">
        <ele>104.229838</ele>
        <time>2022-05-17T20:24:38.891Z</time>
      </trkpt>
      <trkpt lat="43.43588" lon="17.85992">
        <ele>104.315531</ele>
        <time>2022-05-17T20:26:50.066Z</time>
      </trkpt>
      <trkpt lat="43.43651" lon="17.85936">
        <ele>104.456118</ele>
        <time>2022-05-17T20:27:15.493Z</time>
      </trkpt>
      <trkpt lat="43.43705" lon="17.85894">
        <ele>104.584829</ele>
        <time>2022-05-17T20:27:36.394Z</time>
      </trkpt>
      <trkpt lat="43.43957" lon="17.8568">
        <ele>104.749065</ele>
        <time>2022-05-17T20:29:08.869Z</time>
      </trkpt>
      <trkpt lat="43.44123" lon="17.85535">
        <ele>104.54679</ele>
        <time>2022-05-17T20:30:07.958Z</time>
      </trkpt>
      <trkpt lat="43.44133" lon="17.85526">
        <ele>104.557112</ele>
        <time>2022-05-17T20:30:11.786Z</time>
      </trkpt>
      <trkpt lat="43.4429" lon="17.85386">
        <ele>104.354174</ele>
        <time>2022-05-17T20:31:11.850Z</time>
      </trkpt>
      <trkpt lat="43.44332" lon="17.8534">
        <ele>103.992354</ele>
        <time>2022-05-17T20:31:26.968Z</time>
      </trkpt>
      <trkpt lat="43.44337" lon="17.85333">
        <ele>103.939331</ele>
        <time>2022-05-17T20:31:29.050Z</time>
      </trkpt>
      <trkpt lat="43.44384" lon="17.85273">
        <ele>103.511924</ele>
        <time>2022-05-17T20:31:45.730Z</time>
      </trkpt>
      <trkpt lat="43.44401" lon="17.85244">
        <ele>103.277118</ele>
        <time>2022-05-17T20:31:52.989Z</time>
      </trkpt>
      <trkpt lat="43.44445" lon="17.85153">
        <ele>102.551037</ele>
        <time>2022-05-17T20:32:14.065Z</time>
      </trkpt>
      <trkpt lat="43.4446" lon="17.85114">
        <ele>102.25367</ele>
        <time>2022-05-17T20:32:22.770Z</time>
      </trkpt>
      <trkpt lat="43.44485" lon="17.8502">
        <ele>101.846965</ele>
        <time>2022-05-17T20:32:43.064Z</time>
      </trkpt>
      <trkpt lat="43.44524" lon="17.84831">
        <ele>102.059555</ele>
        <time>2022-05-17T20:33:29.828Z</time>
      </trkpt>
      <trkpt lat="43.44556" lon="17.84743">
        <ele>102.92646</ele>
        <time>2022-05-17T20:33:55.032Z</time>
      </trkpt>
      <trkpt lat="43.44608" lon="17.84633">
        <ele>104.297029</ele>
        <time>2022-05-17T20:34:32.072Z</time>
      </trkpt>
      <trkpt lat="43.44641" lon="17.84533">
        <ele>106.94497</ele>
        <time>2022-05-17T20:35:09.141Z</time>
      </trkpt>
      <trkpt lat="43.44653" lon="17.84429">
        <ele>110.1554</ele>
        <time>2022-05-17T20:35:51.251Z</time>
      </trkpt>
      <trkpt lat="43.4465" lon="17.84307">
        <ele>114.974368</ele>
        <time>2022-05-17T20:36:47.619Z</time>
      </trkpt>
      <trkpt lat="43.44653" lon="17.84222">
        <ele>119.364794</ele>
        <time>2022-05-17T20:37:31.778Z</time>
      </trkpt>
      <trkpt lat="43.44666" lon="17.84123">
        <ele>124.537306</ele>
        <time>2022-05-17T20:38:26.858Z</time>
      </trkpt>
      <trkpt lat="43.44713" lon="17.83999">
        <ele>132.167604</ele>
        <time>2022-05-17T20:39:42.452Z</time>
      </trkpt>
      <trkpt lat="43.44743" lon="17.83946">
        <ele>135.841267</ele>
        <time>2022-05-17T20:40:17.968Z</time>
      </trkpt>
      <trkpt lat="43.44779" lon="17.83895">
        <ele>139.340968</ele>
        <time>2022-05-17T20:40:55.119Z</time>
      </trkpt>
      <trkpt lat="43.44814" lon="17.83853">
        <ele>141.747006</ele>
        <time>2022-05-17T20:41:28.459Z</time>
      </trkpt>
      <trkpt lat="43.44881" lon="17.83788">
        <ele>145.963986</ele>
        <time>2022-05-17T20:42:21.430Z</time>
      </trkpt>
      <trkpt lat="43.44963" lon="17.83712">
        <ele>146.522352</ele>
        <time>2022-05-17T20:42:56.413Z</time>
      </trkpt>
      <trkpt lat="43.44985" lon="17.83693">
        <ele>146.023139</ele>
        <time>2022-05-17T20:43:02.768Z</time>
      </trkpt>
      <trkpt lat="43.45059" lon="17.83623">
        <ele>144.304392</ele>
        <time>2022-05-17T20:43:22.511Z</time>
      </trkpt>
      <trkpt lat="43.45104" lon="17.83567">
        <ele>142.053907</ele>
        <time>2022-05-17T20:43:34.887Z</time>
      </trkpt>
      <trkpt lat="43.45284" lon="17.83263">
        <ele>133.455193</ele>
        <time>2022-05-17T20:44:40.962Z</time>
      </trkpt>
      <trkpt lat="43.45321" lon="17.83217">
        <ele>133.158149</ele>
        <time>2022-05-17T20:44:55.634Z</time>
      </trkpt>
      <trkpt lat="43.45384" lon="17.83152">
        <ele>133.2814</ele>
        <time>2022-05-17T20:45:21.246Z</time>
      </trkpt>
      <trkpt lat="43.45532" lon="17.82954">
        <ele>134.931489</ele>
        <time>2022-05-17T20:46:36.919Z</time>
      </trkpt>
      <trkpt lat="43.45593" lon="17.82882">
        <ele>135.964688</ele>
        <time>2022-05-17T20:47:08.057Z</time>
      </trkpt>
      <trkpt lat="43.4566" lon="17.82812">
        <ele>137.186509</ele>
        <time>2022-05-17T20:47:41.212Z</time>
      </trkpt>
      <trkpt lat="43.45769" lon="17.82711">
        <ele>139.211402</ele>
        <time>2022-05-17T20:48:33.531Z</time>
      </trkpt>
      <trkpt lat="43.4587" lon="17.82627">
        <ele>141.192601</ele>
        <time>2022-05-17T20:49:20.573Z</time>
      </trkpt>
      <trkpt lat="43.45988" lon="17.82546">
        <ele>144.104407</ele>
        <time>2022-05-17T20:50:17.010Z</time>
      </trkpt>
      <trkpt lat="43.46355" lon="17.82319">
        <ele>154.747237</ele>
        <time>2022-05-17T20:53:27.827Z</time>
      </trkpt>
      <trkpt lat="43.46436" lon="17.82256">
        <ele>154.303555</ele>
        <time>2022-05-17T20:53:59.699Z</time>
      </trkpt>
      <trkpt lat="43.46612" lon="17.8206">
        <ele>150.602075</ele>
        <time>2022-05-17T20:54:53.243Z</time>
      </trkpt>
      <trkpt lat="43.46661" lon="17.82012">
        <ele>149.804421</ele>
        <time>2022-05-17T20:55:08.528Z</time>
      </trkpt>
      <trkpt lat="43.46741" lon="17.8195">
        <ele>149.497597</ele>
        <time>2022-05-17T20:55:35.270Z</time>
      </trkpt>
      <trkpt lat="43.46905" lon="17.81861">
        <ele>150.19201</ele>
        <time>2022-05-17T20:56:36.811Z</time>
      </trkpt>
      <trkpt lat="43.4716" lon="17.81762">
        <ele>152.356933</ele>
        <time>2022-05-17T20:58:15.005Z</time>
      </trkpt>
      <trkpt lat="43.47192" lon="17.81752">
        <ele>152.159647</ele>
        <time>2022-05-17T20:58:27.000Z</time>
      </trkpt>
      <trkpt lat="43.4772" lon="17.81579">
        <ele>148.126259</ele>
        <time>2022-05-17T21:00:55.080Z</time>
      </trkpt>
      <trkpt lat="43.4782" lon="17.8152">
        <ele>147.004186</ele>
        <time>2022-05-17T21:01:24.862Z</time>
      </trkpt>
      <trkpt lat="43.47853" lon="17.81493">
        <ele>146.314493</ele>
        <time>2022-05-17T21:01:34.959Z</time>
      </trkpt>
      <trkpt lat="43.48083" lon="17.81262">
        <ele>139.110866</ele>
        <time>2022-05-17T21:02:42.832Z</time>
      </trkpt>
      <trkpt lat="43.48089" lon="17.81244">
        <ele>138.71543</ele>
        <time>2022-05-17T21:02:45.877Z</time>
      </trkpt>
      <trkpt lat="43.481" lon="17.81233">
        <ele>138.326044</ele>
        <time>2022-05-17T21:02:48.915Z</time>
      </trkpt>
      <trkpt lat="43.48112" lon="17.81221">
        <ele>137.887262</ele>
        <time>2022-05-17T21:02:52.217Z</time>
      </trkpt>
      <trkpt lat="43.48123" lon="17.81223">
        <ele>137.534778</ele>
        <time>2022-05-17T21:02:54.760Z</time>
      </trkpt>
      <trkpt lat="43.48214" lon="17.81123">
        <ele>133.298734</ele>
        <time>2022-05-17T21:03:20.018Z</time>
      </trkpt>
      <trkpt lat="43.48221" lon="17.81114">
        <ele>132.933149</ele>
        <time>2022-05-17T21:03:22.197Z</time>
      </trkpt>
      <trkpt lat="43.48281" lon="17.8104">
        <ele>130.586584</ele>
        <time>2022-05-17T21:03:40.767Z</time>
      </trkpt>
      <trkpt lat="43.48321" lon="17.80978">
        <ele>129.525031</ele>
        <time>2022-05-17T21:03:55.453Z</time>
      </trkpt>
      <trkpt lat="43.48335" lon="17.80952">
        <ele>129.119579</ele>
        <time>2022-05-17T21:04:01.598Z</time>
      </trkpt>
      <trkpt lat="43.48375" lon="17.80851">
        <ele>128.010354</ele>
        <time>2022-05-17T21:04:23.491Z</time>
      </trkpt>
      <trkpt lat="43.48431" lon="17.80666">
        <ele>128.374454</ele>
        <time>2022-05-17T21:05:13.289Z</time>
      </trkpt>
      <trkpt lat="43.48515" lon="17.80357">
        <ele>130.224651</ele>
        <time>2022-05-17T21:06:36.303Z</time>
      </trkpt>
      <trkpt lat="43.48535" lon="17.80251">
        <ele>131.450946</ele>
        <time>2022-05-17T21:07:06.090Z</time>
      </trkpt>
      <trkpt lat="43.48562" lon="17.80153">
        <ele>132.98564</ele>
        <time>2022-05-17T21:07:39.502Z</time>
      </trkpt>
      <trkpt lat="43.4858" lon="17.80102">
        <ele>134.418169</ele>
        <time>2022-05-17T21:08:02.415Z</time>
      </trkpt>
      <trkpt lat="43.4861" lon="17.80033">
        <ele>136.429305</ele>
        <time>2022-05-17T21:08:37.362Z</time>
      </trkpt>
      <trkpt lat="43.48664" lon="17.79934">
        <ele>138.207192</ele>
        <time>2022-05-17T21:09:19.408Z</time>
      </trkpt>
      <trkpt lat="43.48705" lon="17.79864">
        <ele>137.326924</ele>
        <time>2022-05-17T21:09:40.454Z</time>
      </trkpt>
      <trkpt lat="43.48739" lon="17.79788">
        <ele>136.443695</ele>
        <time>2022-05-17T21:09:55.190Z</time>
      </trkpt>
      <trkpt lat="43.48759" lon="17.79731">
        <ele>135.260011</ele>
        <time>2022-05-17T21:10:04.400Z</time>
      </trkpt>
      <trkpt lat="43.48797" lon="17.7955">
        <ele>130.164026</ele>
        <time>2022-05-17T21:10:34.813Z</time>
      </trkpt>
      <trkpt lat="43.48801" lon="17.79428">
        <ele>129.467776</ele>
        <time>2022-05-17T21:10:56.882Z</time>
      </trkpt>
      <trkpt lat="43.48798" lon="17.79366">
        <ele>129.46879</ele>
        <time>2022-05-17T21:11:12.061Z</time>
      </trkpt>
      <trkpt lat="43.48759" lon="17.79029">
        <ele>133.200724</ele>
        <time>2022-05-17T21:12:57.562Z</time>
      </trkpt>
      <trkpt lat="43.48751" lon="17.78885">
        <ele>135.077583</ele>
        <time>2022-05-17T21:13:42.475Z</time>
      </trkpt>
      <trkpt lat="43.48761" lon="17.78801">
        <ele>136.169411</ele>
        <time>2022-05-17T21:14:07.372Z</time>
      </trkpt>
      <trkpt lat="43.48798" lon="17.78657">
        <ele>137.136942</ele>
        <time>2022-05-17T21:14:47.674Z</time>
      </trkpt>
      <trkpt lat="43.48827" lon="17.78582">
        <ele>137.610944</ele>
        <time>2022-05-17T21:15:08.596Z</time>
      </trkpt>
      <trkpt lat="43.48865" lon="17.7853">
        <ele>137.915375</ele>
        <time>2022-05-17T21:15:26.353Z</time>
      </trkpt>
      <trkpt lat="43.48889" lon="17.78506">
        <ele>138.051592</ele>
        <time>2022-05-17T21:15:36.060Z</time>
      </trkpt>
      <trkpt lat="43.48997" lon="17.78442">
        <ele>138.591003</ele>
        <time>2022-05-17T21:16:15.979Z</time>
      </trkpt>
      <trkpt lat="43.49063" lon="17.78379">
        <ele>138.80965</ele>
        <time>2022-05-17T21:16:43.395Z</time>
      </trkpt>
      <trkpt lat="43.49104" lon="17.78318">
        <ele>138.974468</ele>
        <time>2022-05-17T21:17:02.880Z</time>
      </trkpt>
      <trkpt lat="43.49177" lon="17.78164">
        <ele>138.831793</ele>
        <time>2022-05-17T21:17:43.132Z</time>
      </trkpt>
      <trkpt lat="43.49209" lon="17.78113">
        <ele>138.708977</ele>
        <time>2022-05-17T21:17:57.498Z</time>
      </trkpt>
      <trkpt lat="43.49421" lon="17.77885">
        <ele>138.322849</ele>
        <time>2022-05-17T21:19:17.631Z</time>
      </trkpt>
      <trkpt lat="43.49506" lon="17.7781">
        <ele>138.607664</ele>
        <time>2022-05-17T21:19:50.834Z</time>
      </trkpt>
      <trkpt lat="43.49792" lon="17.77598">
        <ele>141.557408</ele>
        <time>2022-05-17T21:21:48.346Z</time>
      </trkpt>
      <trkpt lat="43.4983" lon="17.77565">
        <ele>142.059439</ele>
        <time>2022-05-17T21:22:05.022Z</time>
      </trkpt>
      <trkpt lat="43.49918" lon="17.77457">
        <ele>144.336566</ele>
        <time>2022-05-17T21:22:54.914Z</time>
      </trkpt>
      <trkpt lat="43.49981" lon="17.77397">
        <ele>145.89338</ele>
        <time>2022-05-17T21:23:29.258Z</time>
      </trkpt>
      <trkpt lat="43.5006" lon="17.77357">
        <ele>146.778603</ele>
        <time>2022-05-17T21:24:04.757Z</time>
      </trkpt>
      <trkpt lat="43.50143" lon="17.77302">
        <ele>147.755202</ele>
        <time>2022-05-17T21:24:36.181Z</time>
      </trkpt>
      <trkpt lat="43.5017" lon="17.77279">
        <ele>147.459326</ele>
        <time>2022-05-17T21:24:44.804Z</time>
      </trkpt>
      <trkpt lat="43.5028" lon="17.77151">
        <ele>145.783542</ele>
        <time>2022-05-17T21:25:21.559Z</time>
      </trkpt>
      <trkpt lat="43.50377" lon="17.77066">
        <ele>146.338251</ele>
        <time>2022-05-17T21:25:53.597Z</time>
      </trkpt>
      <trkpt lat="43.5041" lon="17.7703">
        <ele>146.587198</ele>
        <time>2022-05-17T21:26:12.420Z</time>
      </trkpt>
      <trkpt lat="43.50445" lon="17.76977">
        <ele>146.829789</ele>
        <time>2022-05-17T21:26:41.641Z</time>
      </trkpt>
      <trkpt lat="43.50546" lon="17.76785">
        <ele>146.475531</ele>
        <time>2022-05-17T21:27:34.626Z</time>
      </trkpt>
      <trkpt lat="43.50565" lon="17.76744">
        <ele>144.372488</ele>
        <time>2022-05-17T21:27:42.576Z</time>
      </trkpt>
      <trkpt lat="43.50585" lon="17.76685">
        <ele>141.623293</ele>
        <time>2022-05-17T21:27:52.023Z</time>
      </trkpt>
      <trkpt lat="43.50599" lon="17.76608">
        <ele>138.214956</ele>
        <time>2022-05-17T21:28:03.364Z</time>
      </trkpt>
      <trkpt lat="43.50601" lon="17.76553">
        <ele>136.141877</ele>
        <time>2022-05-17T21:28:10.833Z</time>
      </trkpt>
      <trkpt lat="43.50593" lon="17.76415">
        <ele>132.037768</ele>
        <time>2022-05-17T21:28:32.836Z</time>
      </trkpt>
      <trkpt lat="43.50561" lon="17.76082">
        <ele>127.106677</ele>
        <time>2022-05-17T21:29:35.485Z</time>
      </trkpt>
      <trkpt lat="43.50559" lon="17.76011">
        <ele>127.359602</ele>
        <time>2022-05-17T21:29:52.277Z</time>
      </trkpt>
      <trkpt lat="43.50562" lon="17.75966">
        <ele>127.538802</ele>
        <time>2022-05-17T21:30:03.488Z</time>
      </trkpt>
      <trkpt lat="43.50575" lon="17.75903">
        <ele>127.801497</ele>
        <time>2022-05-17T21:30:20.451Z</time>
      </trkpt>
      <trkpt lat="43.50609" lon="17.75823">
        <ele>128.319181</ele>
        <time>2022-05-17T21:30:45.791Z</time>
      </trkpt>
      <trkpt lat="43.50667" lon="17.75705">
        <ele>129.802186</ele>
        <time>2022-05-17T21:31:27.458Z</time>
      </trkpt>
      <trkpt lat="43.50742" lon="17.75503">
        <ele>131.748372</ele>
        <time>2022-05-17T21:32:30.479Z</time>
      </trkpt>
      <trkpt lat="43.50827" lon="17.75369">
        <ele>132.289551</ele>
        <time>2022-05-17T21:33:16.483Z</time>
      </trkpt>
      <trkpt lat="43.50869" lon="17.7529">
        <ele>131.987477</ele>
        <time>2022-05-17T21:33:36.768Z</time>
      </trkpt>
      <trkpt lat="43.50941" lon="17.75125">
        <ele>131.03359</ele>
        <time>2022-05-17T21:34:12.712Z</time>
      </trkpt>
      <trkpt lat="43.50983" lon="17.74973">
        <ele>130.573448</ele>
        <time>2022-05-17T21:34:46.319Z</time>
      </trkpt>
      <trkpt lat="43.51005" lon="17.74906">
        <ele>131.309907</ele>
        <time>2022-05-17T21:35:06.820Z</time>
      </trkpt>
      <trkpt lat="43.51027" lon="17.74863">
        <ele>131.832433</ele>
        <time>2022-05-17T21:35:22.435Z</time>
      </trkpt>
      <trkpt lat="43.51082" lon="17.74795">
        <ele>132.83958</ele>
        <time>2022-05-17T21:35:55.054Z</time>
      </trkpt>
      <trkpt lat="43.51118" lon="17.7477">
        <ele>133.345466</ele>
        <time>2022-05-17T21:36:12.880Z</time>
      </trkpt>
      <trkpt lat="43.51235" lon="17.74715">
        <ele>134.890055</ele>
        <time>2022-05-17T21:36:58.468Z</time>
      </trkpt>
      <trkpt lat="43.51318" lon="17.74652">
        <ele>135.471419</ele>
        <time>2022-05-17T21:37:28.672Z</time>
      </trkpt>
      <trkpt lat="43.5138" lon="17.74591">
        <ele>135.907572</ele>
        <time>2022-05-17T21:37:54.303Z</time>
      </trkpt>
      <trkpt lat="43.5166" lon="17.74287">
        <ele>140.898605</ele>
        <time>2022-05-17T21:40:15.102Z</time>
      </trkpt>
      <trkpt lat="43.51717" lon="17.74249">
        <ele>141.647585</ele>
        <time>2022-05-17T21:40:39.815Z</time>
      </trkpt>
      <trkpt lat="43.5182" lon="17.74215">
        <ele>142.791448</ele>
        <time>2022-05-17T21:41:18.841Z</time>
      </trkpt>
      <trkpt lat="43.51868" lon="17.74193">
        <ele>143.501408</ele>
        <time>2022-05-17T21:41:36.206Z</time>
      </trkpt>
      <trkpt lat="43.51898" lon="17.74168">
        <ele>144.137825</ele>
        <time>2022-05-17T21:41:48.765Z</time>
      </trkpt>
      <trkpt lat="43.51977" lon="17.74085">
        <ele>145.955602</ele>
        <time>2022-05-17T21:42:30.912Z</time>
      </trkpt>
      <trkpt lat="43.52011" lon="17.7406">
        <ele>146.686289</ele>
        <time>2022-05-17T21:42:49.712Z</time>
      </trkpt>
      <trkpt lat="43.52048" lon="17.74043">
        <ele>147.485432</ele>
        <time>2022-05-17T21:43:08.844Z</time>
      </trkpt>
      <trkpt lat="43.52107" lon="17.74032">
        <ele>148.700621</ele>
        <time>2022-05-17T21:43:36.333Z</time>
      </trkpt>
      <trkpt lat="43.52162" lon="17.74024">
        <ele>149.82403</ele>
        <time>2022-05-17T21:44:00.149Z</time>
      </trkpt>
      <trkpt lat="43.5237" lon="17.7399">
        <ele>147.433669</ele>
        <time>2022-05-17T21:44:55.648Z</time>
      </trkpt>
      <trkpt lat="43.52526" lon="17.73916">
        <ele>142.048531</ele>
        <time>2022-05-17T21:45:31.856Z</time>
      </trkpt>
      <trkpt lat="43.52617" lon="17.73886">
        <ele>140.952976</ele>
        <time>2022-05-17T21:45:53.719Z</time>
      </trkpt>
      <trkpt lat="43.52641" lon="17.73877">
        <ele>140.65988</ele>
        <time>2022-05-17T21:46:00.095Z</time>
      </trkpt>
      <trkpt lat="43.52856" lon="17.73792">
        <ele>142.928619</ele>
        <time>2022-05-17T21:47:32.694Z</time>
      </trkpt>
      <trkpt lat="43.52906" lon="17.73766">
        <ele>143.560623</ele>
        <time>2022-05-17T21:47:55.867Z</time>
      </trkpt>
      <trkpt lat="43.53002" lon="17.73707">
        <ele>144.544221</ele>
        <time>2022-05-17T21:48:33.454Z</time>
      </trkpt>
      <trkpt lat="43.53171" lon="17.73574">
        <ele>144.949244</ele>
        <time>2022-05-17T21:49:33.208Z</time>
      </trkpt>
      <trkpt lat="43.53218" lon="17.73544">
        <ele>145.204019</ele>
        <time>2022-05-17T21:49:50.365Z</time>
      </trkpt>
      <trkpt lat="43.53403" lon="17.73474">
        <ele>146.810737</ele>
        <time>2022-05-17T21:51:00.171Z</time>
      </trkpt>
      <trkpt lat="43.5352" lon="17.73417">
        <ele>148.018091</ele>
        <time>2022-05-17T21:51:47.909Z</time>
      </trkpt>
      <trkpt lat="43.53603" lon="17.73379">
        <ele>147.814458</ele>
        <time>2022-05-17T21:52:14.396Z</time>
      </trkpt>
      <trkpt lat="43.53668" lon="17.73348">
        <ele>147.495863</ele>
        <time>2022-05-17T21:52:33.558Z</time>
      </trkpt>
      <trkpt lat="43.5373" lon="17.7332">
        <ele>147.230903</ele>
        <time>2022-05-17T21:52:50.758Z</time>
      </trkpt>
      <trkpt lat="43.53919" lon="17.73255">
        <ele>147.300454</ele>
        <time>2022-05-17T21:53:49.303Z</time>
      </trkpt>
      <trkpt lat="43.54023" lon="17.73223">
        <ele>148.758698</ele>
        <time>2022-05-17T21:54:32.737Z</time>
      </trkpt>
      <trkpt lat="43.54161" lon="17.73194">
        <ele>151.49254</ele>
        <time>2022-05-17T21:55:34.584Z</time>
      </trkpt>
      <trkpt lat="43.54332" lon="17.73117">
        <ele>154.191738</ele>
        <time>2022-05-17T21:56:49.628Z</time>
      </trkpt>
      <trkpt lat="43.54462" lon="17.73076">
        <ele>154.772711</ele>
        <time>2022-05-17T21:57:30.796Z</time>
      </trkpt>
      <trkpt lat="43.54514" lon="17.73036">
        <ele>154.589823</ele>
        <time>2022-05-17T21:57:47.521Z</time>
      </trkpt>
      <trkpt lat="43.54519" lon="17.73031">
        <ele>154.568451</ele>
        <time>2022-05-17T21:57:49.945Z</time>
      </trkpt>
      <trkpt lat="43.54563" lon="17.72908">
        <ele>154.183353</ele>
        <time>2022-05-17T21:58:28.650Z</time>
      </trkpt>
      <trkpt lat="43.54593" lon="17.72865">
        <ele>153.983506</ele>
        <time>2022-05-17T21:58:44.010Z</time>
      </trkpt>
      <trkpt lat="43.54606" lon="17.7286">
        <ele>153.918014</ele>
        <time>2022-05-17T21:58:51.228Z</time>
      </trkpt>
      <trkpt lat="43.54609" lon="17.7285">
        <ele>153.88087</ele>
        <time>2022-05-17T21:58:53.222Z</time>
      </trkpt>
      <trkpt lat="43.54636" lon="17.7279">
        <ele>153.640648</ele>
        <time>2022-05-17T21:59:07.551Z</time>
      </trkpt>
      <trkpt lat="43.54661" lon="17.72751">
        <ele>153.417571</ele>
        <time>2022-05-17T21:59:18.915Z</time>
      </trkpt>
      <trkpt lat="43.54719" lon="17.72683">
        <ele>152.896476</ele>
        <time>2022-05-17T21:59:40.724Z</time>
      </trkpt>
      <trkpt lat="43.54798" lon="17.72609">
        <ele>152.248001</ele>
        <time>2022-05-17T22:00:06.518Z</time>
      </trkpt>
      <trkpt lat="43.5483" lon="17.72566">
        <ele>151.973275</ele>
        <time>2022-05-17T22:00:19.300Z</time>
      </trkpt>
      <trkpt lat="43.54898" lon="17.72449">
        <ele>151.304897</ele>
        <time>2022-05-17T22:00:49.897Z</time>
      </trkpt>
      <trkpt lat="43.54935" lon="17.72404">
        <ele>151.475882</ele>
        <time>2022-05-17T22:01:04.238Z</time>
      </trkpt>
      <trkpt lat="43.55049" lon="17.72319">
        <ele>152.356254</ele>
        <time>2022-05-17T22:01:48.524Z</time>
      </trkpt>
      <trkpt lat="43.55154" lon="17.72228">
        <ele>155.761827</ele>
        <time>2022-05-17T22:02:47.005Z</time>
      </trkpt>
      <trkpt lat="43.5522" lon="17.72202">
        <ele>157.831419</ele>
        <time>2022-05-17T22:03:22.793Z</time>
      </trkpt>
      <trkpt lat="43.55308" lon="17.72183">
        <ele>160.673549</ele>
        <time>2022-05-17T22:04:09.579Z</time>
      </trkpt>
      <trkpt lat="43.55344" lon="17.72167">
        <ele>161.893699</ele>
        <time>2022-05-17T22:04:29.149Z</time>
      </trkpt>
      <trkpt lat="43.55519" lon="17.72069">
        <ele>165.491008</ele>
        <time>2022-05-17T22:05:49.597Z</time>
      </trkpt>
      <trkpt lat="43.5566" lon="17.72004">
        <ele>165.646074</ele>
        <time>2022-05-17T22:06:33.020Z</time>
      </trkpt>
      <trkpt lat="43.55759" lon="17.71936">
        <ele>165.463888</ele>
        <time>2022-05-17T22:07:03.288Z</time>
      </trkpt>
      <trkpt lat="43.5582" lon="17.71905">
        <ele>165.793511</ele>
        <time>2022-05-17T22:07:24.038Z</time>
      </trkpt>
      <trkpt lat="43.55867" lon="17.71893">
        <ele>166.034695</ele>
        <time>2022-05-17T22:07:41.337Z</time>
      </trkpt>
      <trkpt lat="43.55905" lon="17.71893">
        <ele>166.274538</ele>
        <time>2022-05-17T22:07:56.935Z</time>
      </trkpt>
      <trkpt lat="43.55949" lon="17.71905">
        <ele>166.961367</ele>
        <time>2022-05-17T22:08:17.104Z</time>
      </trkpt>
      <trkpt lat="43.56048" lon="17.71958">
        <ele>168.575088</ele>
        <time>2022-05-17T22:09:01.901Z</time>
      </trkpt>
      <trkpt lat="43.5619" lon="17.72">
        <ele>168.260066</ele>
        <time>2022-05-17T22:09:44.628Z</time>
      </trkpt>
      <trkpt lat="43.56316" lon="17.7205">
        <ele>167.626538</ele>
        <time>2022-05-17T22:10:18.393Z</time>
      </trkpt>
      <trkpt lat="43.56499" lon="17.72153">
        <ele>168.208166</ele>
        <time>2022-05-17T22:11:22.962Z</time>
      </trkpt>
      <trkpt lat="43.56564" lon="17.72163">
        <ele>168.95574</ele>
        <time>2022-05-17T22:11:52.750Z</time>
      </trkpt>
      <trkpt lat="43.56678" lon="17.72165">
        <ele>168.614243</ele>
        <time>2022-05-17T22:12:35.895Z</time>
      </trkpt>
      <trkpt lat="43.56785" lon="17.72212">
        <ele>166.938908</ele>
        <time>2022-05-17T22:13:02.788Z</time>
      </trkpt>
      <trkpt lat="43.56814" lon="17.72218">
        <ele>165.536222</ele>
        <time>2022-05-17T22:13:09.062Z</time>
      </trkpt>
      <trkpt lat="43.56859" lon="17.72215">
        <ele>163.397853</ele>
        <time>2022-05-17T22:13:18.371Z</time>
      </trkpt>
      <trkpt lat="43.56895" lon="17.72204">
        <ele>161.62655</ele>
        <time>2022-05-17T22:13:26.124Z</time>
      </trkpt>
      <trkpt lat="43.56988" lon="17.72155">
        <ele>157.136095</ele>
        <time>2022-05-17T22:13:47.084Z</time>
      </trkpt>
      <trkpt lat="43.57028" lon="17.7214">
        <ele>155.367037</ele>
        <time>2022-05-17T22:13:56.005Z</time>
      </trkpt>
      <trkpt lat="43.57076" lon="17.72135">
        <ele>153.292184</ele>
        <time>2022-05-17T22:14:06.649Z</time>
      </trkpt>
      <trkpt lat="43.57192" lon="17.72141">
        <ele>149.589936</ele>
        <time>2022-05-17T22:14:32.969Z</time>
      </trkpt>
      <trkpt lat="43.57235" lon="17.72131">
        <ele>148.430083</ele>
        <time>2022-05-17T22:14:43.085Z</time>
      </trkpt>
      <trkpt lat="43.57285" lon="17.72104">
        <ele>147.0128</ele>
        <time>2022-05-17T22:14:55.874Z</time>
      </trkpt>
      <trkpt lat="43.57443" lon="17.71967">
        <ele>146.280555</ele>
        <time>2022-05-17T22:15:50.834Z</time>
      </trkpt>
      <trkpt lat="43.57506" lon="17.71929">
        <ele>146.938945</ele>
        <time>2022-05-17T22:16:17.255Z</time>
      </trkpt>
      <trkpt lat="43.57562" lon="17.71912">
        <ele>147.482943</ele>
        <time>2022-05-17T22:16:40.628Z</time>
      </trkpt>
      <trkpt lat="43.5761" lon="17.71906">
        <ele>147.936827</ele>
        <time>2022-05-17T22:16:56.646Z</time>
      </trkpt>
      <trkpt lat="43.57651" lon="17.71906">
        <ele>149.14686</ele>
        <time>2022-05-17T22:17:10.281Z</time>
      </trkpt>
      <trkpt lat="43.57691" lon="17.71916">
        <ele>150.425283</ele>
        <time>2022-05-17T22:17:25.602Z</time>
      </trkpt>
      <trkpt lat="43.57758" lon="17.71926">
        <ele>152.517642</ele>
        <time>2022-05-17T22:17:57.239Z</time>
      </trkpt>
      <trkpt lat="43.57761" lon="17.71926">
        <ele>152.612059</ele>
        <time>2022-05-17T22:17:59.249Z</time>
      </trkpt>
      <trkpt lat="43.57864" lon="17.71945">
        <ele>160.108365</ele>
        <time>2022-05-17T22:19:17.386Z</time>
      </trkpt>
      <trkpt lat="43.57934" lon="17.71983">
        <ele>166.877534</ele>
        <time>2022-05-17T22:20:29.199Z</time>
      </trkpt>
      <trkpt lat="43.58062" lon="17.72101">
        <ele>175.373712</ele>
        <time>2022-05-17T22:22:27.296Z</time>
      </trkpt>
      <trkpt lat="43.58106" lon="17.72125">
        <ele>177.600179</ele>
        <time>2022-05-17T22:22:39.790Z</time>
      </trkpt>
      <trkpt lat="43.58158" lon="17.72138">
        <ele>176.118802</ele>
        <time>2022-05-17T22:22:51.218Z</time>
      </trkpt>
      <trkpt lat="43.58186" lon="17.72137">
        <ele>174.80801</ele>
        <time>2022-05-17T22:22:57.209Z</time>
      </trkpt>
      <trkpt lat="43.58211" lon="17.72131">
        <ele>173.64622</ele>
        <time>2022-05-17T22:23:02.458Z</time>
      </trkpt>
      <trkpt lat="43.5826" lon="17.72103">
        <ele>171.228396</ele>
        <time>2022-05-17T22:23:13.089Z</time>
      </trkpt>
      <trkpt lat="43.58369" lon="17.72013">
        <ele>169.605416</ele>
        <time>2022-05-17T22:23:41.719Z</time>
      </trkpt>
      <trkpt lat="43.58418" lon="17.71988">
        <ele>169.479974</ele>
        <time>2022-05-17T22:24:06.406Z</time>
      </trkpt>
      <trkpt lat="43.5851" lon="17.7197">
        <ele>173.445764</ele>
        <time>2022-05-17T22:24:59.726Z</time>
      </trkpt>
      <trkpt lat="43.58559" lon="17.71972">
        <ele>176.649735</ele>
        <time>2022-05-17T22:25:31.077Z</time>
      </trkpt>
      <trkpt lat="43.58746" lon="17.72004">
        <ele>192.76768</ele>
        <time>2022-05-17T22:28:03.845Z</time>
      </trkpt>
      <trkpt lat="43.58783" lon="17.7201">
        <ele>196.413865</ele>
        <time>2022-05-17T22:28:42.627Z</time>
      </trkpt>
      <trkpt lat="43.58828" lon="17.72026">
        <ele>200.011273</ele>
        <time>2022-05-17T22:29:26.880Z</time>
      </trkpt>
      <trkpt lat="43.58879" lon="17.72052">
        <ele>203.13943</ele>
        <time>2022-05-17T22:30:08.767Z</time>
      </trkpt>
      <trkpt lat="43.58946" lon="17.72076">
        <ele>207.17323</ele>
        <time>2022-05-17T22:30:50.586Z</time>
      </trkpt>
      <trkpt lat="43.58985" lon="17.7209">
        <ele>208.941403</ele>
        <time>2022-05-17T22:31:05.160Z</time>
      </trkpt>
      <trkpt lat="43.59049" lon="17.72103">
        <ele>207.811045</ele>
        <time>2022-05-17T22:31:20.586Z</time>
      </trkpt>
      <trkpt lat="43.59118" lon="17.7214">
        <ele>206.544546</ele>
        <time>2022-05-17T22:31:36.509Z</time>
      </trkpt>
      <trkpt lat="43.59152" lon="17.72168">
        <ele>206.053967</ele>
        <time>2022-05-17T22:31:47.435Z</time>
      </trkpt>
      <trkpt lat="43.59362" lon="17.72412">
        <ele>209.583433</ele>
        <time>2022-05-17T22:33:48.234Z</time>
      </trkpt>
      <trkpt lat="43.59469" lon="17.7255">
        <ele>207.592355</ele>
        <time>2022-05-17T22:34:25.807Z</time>
      </trkpt>
      <trkpt lat="43.59585" lon="17.72713">
        <ele>202.222807</ele>
        <time>2022-05-17T22:35:00.669Z</time>
      </trkpt>
      <trkpt lat="43.59625" lon="17.728">
        <ele>200.416795</ele>
        <time>2022-05-17T22:35:17.371Z</time>
      </trkpt>
      <trkpt lat="43.59678" lon="17.73006">
        <ele>203.428483</ele>
        <time>2022-05-17T22:36:22.008Z</time>
      </trkpt>
      <trkpt lat="43.598" lon="17.73312">
        <ele>218.381587</ele>
        <time>2022-05-17T22:39:28.237Z</time>
      </trkpt>
      <trkpt lat="43.59839" lon="17.73386">
        <ele>216.590457</ele>
        <time>2022-05-17T22:39:58.748Z</time>
      </trkpt>
      <trkpt lat="43.59847" lon="17.73416">
        <ele>215.930704</ele>
        <time>2022-05-17T22:40:07.382Z</time>
      </trkpt>
      <trkpt lat="43.59872" lon="17.73445">
        <ele>214.996411</ele>
        <time>2022-05-17T22:40:14.850Z</time>
      </trkpt>
      <trkpt lat="43.59931" lon="17.73472">
        <ele>212.786396</ele>
        <time>2022-05-17T22:40:27.381Z</time>
      </trkpt>
      <trkpt lat="43.60008" lon="17.73563">
        <ele>198.152026</ele>
        <time>2022-05-17T22:40:45.685Z</time>
      </trkpt>
      <trkpt lat="43.60036" lon="17.73574">
        <ele>193.917779</ele>
        <time>2022-05-17T22:40:50.928Z</time>
      </trkpt>
      <trkpt lat="43.60165" lon="17.73539">
        <ele>177.193533</ele>
        <time>2022-05-17T22:41:14.847Z</time>
      </trkpt>
      <trkpt lat="43.60191" lon="17.73554">
        <ele>173.941465</ele>
        <time>2022-05-17T22:41:20.002Z</time>
      </trkpt>
      <trkpt lat="43.60219" lon="17.73589">
        <ele>169.543689</ele>
        <time>2022-05-17T22:41:27.198Z</time>
      </trkpt>
      <trkpt lat="43.60255" lon="17.73658">
        <ele>165.781439</ele>
        <time>2022-05-17T22:41:40.219Z</time>
      </trkpt>
      <trkpt lat="43.60378" lon="17.73928">
        <ele>164.975194</ele>
        <time>2022-05-17T22:42:56.615Z</time>
      </trkpt>
      <trkpt lat="43.60425" lon="17.74005">
        <ele>165.81912</ele>
        <time>2022-05-17T22:43:23.858Z</time>
      </trkpt>
      <trkpt lat="43.60478" lon="17.74064">
        <ele>168.219197</ele>
        <time>2022-05-17T22:43:55.796Z</time>
      </trkpt>
      <trkpt lat="43.60534" lon="17.74114">
        <ele>171.373613</ele>
        <time>2022-05-17T22:44:35.223Z</time>
      </trkpt>
      <trkpt lat="43.60587" lon="17.74156">
        <ele>174.267042</ele>
        <time>2022-05-17T22:45:15.642Z</time>
      </trkpt>
      <trkpt lat="43.60642" lon="17.74182">
        <ele>176.954338</ele>
        <time>2022-05-17T22:45:53.865Z</time>
      </trkpt>
      <trkpt lat="43.60693" lon="17.74189">
        <ele>179.2807</ele>
        <time>2022-05-17T22:46:25.295Z</time>
      </trkpt>
      <trkpt lat="43.60725" lon="17.74184">
        <ele>180.767225</ele>
        <time>2022-05-17T22:46:43.817Z</time>
      </trkpt>
      <trkpt lat="43.60842" lon="17.7415">
        <ele>183.62585</ele>
        <time>2022-05-17T22:47:35.441Z</time>
      </trkpt>
      <trkpt lat="43.60915" lon="17.74102">
        <ele>184.490852</ele>
        <time>2022-05-17T22:48:00.722Z</time>
      </trkpt>
      <trkpt lat="43.60992" lon="17.74041">
        <ele>184.842882</ele>
        <time>2022-05-17T22:48:30.112Z</time>
      </trkpt>
      <trkpt lat="43.61196" lon="17.73919">
        <ele>183.585112</ele>
        <time>2022-05-17T22:49:39.980Z</time>
      </trkpt>
      <trkpt lat="43.61232" lon="17.73914">
        <ele>183.109307</ele>
        <time>2022-05-17T22:49:48.657Z</time>
      </trkpt>
      <trkpt lat="43.61308" lon="17.73915">
        <ele>180.808869</ele>
        <time>2022-05-17T22:50:05.499Z</time>
      </trkpt>
      <trkpt lat="43.61449" lon="17.73901">
        <ele>174.090934</ele>
        <time>2022-05-17T22:50:35.166Z</time>
      </trkpt>
      <trkpt lat="43.61514" lon="17.73916">
        <ele>171.764675</ele>
        <time>2022-05-17T22:50:49.151Z</time>
      </trkpt>
      <trkpt lat="43.61586" lon="17.73955">
        <ele>169.020088</ele>
        <time>2022-05-17T22:51:06.789Z</time>
      </trkpt>
      <trkpt lat="43.61624" lon="17.73983">
        <ele>167.711302</ele>
        <time>2022-05-17T22:51:17.360Z</time>
      </trkpt>
      <trkpt lat="43.61627" lon="17.73986">
        <ele>167.693309</ele>
        <time>2022-05-17T22:51:18.332Z</time>
      </trkpt>
      <trkpt lat="43.61645" lon="17.74002">
        <ele>167.596763</ele>
        <time>2022-05-17T22:51:23.754Z</time>
      </trkpt>
      <trkpt lat="43.61808" lon="17.74199">
        <ele>167.379969</ele>
        <time>2022-05-17T22:52:31.349Z</time>
      </trkpt>
      <trkpt lat="43.61952" lon="17.74422">
        <ele>168.977585</ele>
        <time>2022-05-17T22:53:51.874Z</time>
      </trkpt>
      <trkpt lat="43.62055" lon="17.74547">
        <ele>168.711396</ele>
        <time>2022-05-17T22:54:37.783Z</time>
      </trkpt>
      <trkpt lat="43.62095" lon="17.74616">
        <ele>167.806036</ele>
        <time>2022-05-17T22:54:54.304Z</time>
      </trkpt>
      <trkpt lat="43.62163" lon="17.74759">
        <ele>165.179703</ele>
        <time>2022-05-17T22:55:22.268Z</time>
      </trkpt>
      <trkpt lat="43.62191" lon="17.7481">
        <ele>163.933657</ele>
        <time>2022-05-17T22:55:32.710Z</time>
      </trkpt>
      <trkpt lat="43.62316" lon="17.74981">
        <ele>161.656142</ele>
        <time>2022-05-17T22:56:17.724Z</time>
      </trkpt>
      <trkpt lat="43.62344" lon="17.75013">
        <ele>161.475937</ele>
        <time>2022-05-17T22:56:31.631Z</time>
      </trkpt>
      <trkpt lat="43.62382" lon="17.75042">
        <ele>161.462355</ele>
        <time>2022-05-17T22:56:48.160Z</time>
      </trkpt>
      <trkpt lat="43.62423" lon="17.75056">
        <ele>161.946147</ele>
        <time>2022-05-17T22:57:04.229Z</time>
      </trkpt>
      <trkpt lat="43.62548" lon="17.75052">
        <ele>163.405326</ele>
        <time>2022-05-17T22:57:52.000Z</time>
      </trkpt>
      <trkpt lat="43.62607" lon="17.75075">
        <ele>163.907221</ele>
        <time>2022-05-17T22:58:13.892Z</time>
      </trkpt>
      <trkpt lat="43.62666" lon="17.75127">
        <ele>164.476607</ele>
        <time>2022-05-17T22:58:37.328Z</time>
      </trkpt>
      <trkpt lat="43.6269" lon="17.75162">
        <ele>164.763172</ele>
        <time>2022-05-17T22:58:49.920Z</time>
      </trkpt>
      <trkpt lat="43.62746" lon="17.75275">
        <ele>166.296339</ele>
        <time>2022-05-17T22:59:28.111Z</time>
      </trkpt>
      <trkpt lat="43.62771" lon="17.75362">
        <ele>167.435805</ele>
        <time>2022-05-17T22:59:56.896Z</time>
      </trkpt>
      <trkpt lat="43.62781" lon="17.75384">
        <ele>167.747512</ele>
        <time>2022-05-17T23:00:05.825Z</time>
      </trkpt>
      <trkpt lat="43.62813" lon="17.75411">
        <ele>168.24859</ele>
        <time>2022-05-17T23:00:23.548Z</time>
      </trkpt>
      <trkpt lat="43.62841" lon="17.75419">
        <ele>168.60489</ele>
        <time>2022-05-17T23:00:36.599Z</time>
      </trkpt>
      <trkpt lat="43.62865" lon="17.75415">
        <ele>168.905785</ele>
        <time>2022-05-17T23:00:47.342Z</time>
      </trkpt>
      <trkpt lat="43.62888" lon="17.75403">
        <ele>169.206919</ele>
        <time>2022-05-17T23:00:56.897Z</time>
      </trkpt>
      <trkpt lat="43.62919" lon="17.75367">
        <ele>169.712433</ele>
        <time>2022-05-17T23:01:12.038Z</time>
      </trkpt>
      <trkpt lat="43.6301" lon="17.75341">
        <ele>169.184557</ele>
        <time>2022-05-17T23:01:38.824Z</time>
      </trkpt>
      <trkpt lat="43.63066" lon="17.75346">
        <ele>168.300835</ele>
        <time>2022-05-17T23:01:51.893Z</time>
      </trkpt>
      <trkpt lat="43.63127" lon="17.75378">
        <ele>167.324268</ele>
        <time>2022-05-17T23:02:06.846Z</time>
      </trkpt>
      <trkpt lat="43.63189" lon="17.75442">
        <ele>168.502439</ele>
        <time>2022-05-17T23:02:34.874Z</time>
      </trkpt>
      <trkpt lat="43.63201" lon="17.75455">
        <ele>168.728394</ele>
        <time>2022-05-17T23:02:40.053Z</time>
      </trkpt>
      <trkpt lat="43.63231" lon="17.75483">
        <ele>169.272417</ele>
        <time>2022-05-17T23:02:55.928Z</time>
      </trkpt>
      <trkpt lat="43.63279" lon="17.75531">
        <ele>170.45489</ele>
        <time>2022-05-17T23:03:25.547Z</time>
      </trkpt>
      <trkpt lat="43.63327" lon="17.75592">
        <ele>173.294484</ele>
        <time>2022-05-17T23:04:04.453Z</time>
      </trkpt>
      <trkpt lat="43.63395" lon="17.75708">
        <ele>178.060342</ele>
        <time>2022-05-17T23:05:06.475Z</time>
      </trkpt>
      <trkpt lat="43.6342" lon="17.75741">
        <ele>179.744417</ele>
        <time>2022-05-17T23:05:21.866Z</time>
      </trkpt>
      <trkpt lat="43.63448" lon="17.75764">
        <ele>181.37322</ele>
        <time>2022-05-17T23:05:39.077Z</time>
      </trkpt>
      <trkpt lat="43.63489" lon="17.75775">
        <ele>183.45228</ele>
        <time>2022-05-17T23:06:03.193Z</time>
      </trkpt>
      <trkpt lat="43.6353" lon="17.75765">
        <ele>185.541459</ele>
        <time>2022-05-17T23:06:30.286Z</time>
      </trkpt>
      <trkpt lat="43.63557" lon="17.75746">
        <ele>187.099999</ele>
        <time>2022-05-17T23:06:50.314Z</time>
      </trkpt>
      <trkpt lat="43.6359" lon="17.75702">
        <ele>190.329349</ele>
        <time>2022-05-17T23:07:22.883Z</time>
      </trkpt>
      <trkpt lat="43.63597" lon="17.75691">
        <ele>191.047152</ele>
        <time>2022-05-17T23:07:30.002Z</time>
      </trkpt>
      <trkpt lat="43.63616" lon="17.75666">
        <ele>192.860453</ele>
        <time>2022-05-17T23:07:48.714Z</time>
      </trkpt>
      <trkpt lat="43.63618" lon="17.75664">
        <ele>193.02484</ele>
        <time>2022-05-17T23:07:50.477Z</time>
      </trkpt>
      <trkpt lat="43.63651" lon="17.75614">
        <ele>196.451706</ele>
        <time>2022-05-17T23:08:25.825Z</time>
      </trkpt>
      <trkpt lat="43.63679" lon="17.75589">
        <ele>198.769976</ele>
        <time>2022-05-17T23:08:50.526Z</time>
      </trkpt>
      <trkpt lat="43.63719" lon="17.75583">
        <ele>201.126381</ele>
        <time>2022-05-17T23:09:18.176Z</time>
      </trkpt>
      <trkpt lat="43.63741" lon="17.75587">
        <ele>202.388248</ele>
        <time>2022-05-17T23:09:33.017Z</time>
      </trkpt>
      <trkpt lat="43.63862" lon="17.75663">
        <ele>209.690039</ele>
        <time>2022-05-17T23:10:53.021Z</time>
      </trkpt>
      <trkpt lat="43.63972" lon="17.75751">
        <ele>214.35108</ele>
        <time>2022-05-17T23:12:02.282Z</time>
      </trkpt>
      <trkpt lat="43.64093" lon="17.75795">
        <ele>216.414475</ele>
        <time>2022-05-17T23:12:54.256Z</time>
      </trkpt>
      <trkpt lat="43.64116" lon="17.75814">
        <ele>216.553139</ele>
        <time>2022-05-17T23:13:01.898Z</time>
      </trkpt>
      <trkpt lat="43.64143" lon="17.75864">
        <ele>216.786546</ele>
        <time>2022-05-17T23:13:14.171Z</time>
      </trkpt>
      <trkpt lat="43.64161" lon="17.75915">
        <ele>217.248578</ele>
        <time>2022-05-17T23:13:24.972Z</time>
      </trkpt>
      <trkpt lat="43.64178" lon="17.75964">
        <ele>218.265443</ele>
        <time>2022-05-17T23:13:36.693Z</time>
      </trkpt>
      <trkpt lat="43.64196" lon="17.76">
        <ele>219.077186</ele>
        <time>2022-05-17T23:13:48.892Z</time>
      </trkpt>
      <trkpt lat="43.64259" lon="17.76078">
        <ele>221.25975</ele>
        <time>2022-05-17T23:14:33.742Z</time>
      </trkpt>
      <trkpt lat="43.64318" lon="17.76175">
        <ele>226.202919</ele>
        <time>2022-05-17T23:15:38.303Z</time>
      </trkpt>
      <trkpt lat="43.64342" lon="17.76192">
        <ele>227.834037</ele>
        <time>2022-05-17T23:15:57.937Z</time>
      </trkpt>
      <trkpt lat="43.64364" lon="17.76188">
        <ele>229.1159</ele>
        <time>2022-05-17T23:16:13.029Z</time>
      </trkpt>
      <trkpt lat="43.64376" lon="17.76175">
        <ele>229.959858</ele>
        <time>2022-05-17T23:16:22.971Z</time>
      </trkpt>
      <trkpt lat="43.64386" lon="17.76149">
        <ele>231.238302</ele>
        <time>2022-05-17T23:16:37.010Z</time>
      </trkpt>
      <trkpt lat="43.64382" lon="17.76034">
        <ele>233.114224</ele>
        <time>2022-05-17T23:17:15.244Z</time>
      </trkpt>
      <trkpt lat="43.64395" lon="17.75977">
        <ele>233.768235</ele>
        <time>2022-05-17T23:17:29.295Z</time>
      </trkpt>
      <trkpt lat="43.64427" lon="17.75941">
        <ele>234.400864</ele>
        <time>2022-05-17T23:17:41.625Z</time>
      </trkpt>
      <trkpt lat="43.64494" lon="17.75921">
        <ele>235.03376</ele>
        <time>2022-05-17T23:18:05.598Z</time>
      </trkpt>
      <trkpt lat="43.64518" lon="17.75901">
        <ele>235.191669</ele>
        <time>2022-05-17T23:18:15.554Z</time>
      </trkpt>
      <trkpt lat="43.64583" lon="17.7577">
        <ele>235.74173</ele>
        <time>2022-05-17T23:18:56.200Z</time>
      </trkpt>
      <trkpt lat="43.64619" lon="17.75652">
        <ele>234.343978</ele>
        <time>2022-05-17T23:19:22.998Z</time>
      </trkpt>
      <trkpt lat="43.64644" lon="17.75629">
        <ele>233.884026</ele>
        <time>2022-05-17T23:19:30.326Z</time>
      </trkpt>
      <trkpt lat="43.64717" lon="17.75625">
        <ele>232.285552</ele>
        <time>2022-05-17T23:19:46.686Z</time>
      </trkpt>
      <trkpt lat="43.6474" lon="17.75602">
        <ele>231.172695</ele>
        <time>2022-05-17T23:19:52.972Z</time>
      </trkpt>
      <trkpt lat="43.64776" lon="17.75553">
        <ele>229.18457</ele>
        <time>2022-05-17T23:20:04.035Z</time>
      </trkpt>
      <trkpt lat="43.64843" lon="17.75516">
        <ele>226.313595</ele>
        <time>2022-05-17T23:20:20.088Z</time>
      </trkpt>
      <trkpt lat="43.64894" lon="17.75473">
        <ele>222.952394</ele>
        <time>2022-05-17T23:20:32.920Z</time>
      </trkpt>
      <trkpt lat="43.64926" lon="17.75447">
        <ele>220.765228</ele>
        <time>2022-05-17T23:20:40.665Z</time>
      </trkpt>
      <trkpt lat="43.65044" lon="17.75372">
        <ele>212.769845</ele>
        <time>2022-05-17T23:21:06.638Z</time>
      </trkpt>
      <trkpt lat="43.65077" lon="17.75367">
        <ele>210.481522</ele>
        <time>2022-05-17T23:21:13.369Z</time>
      </trkpt>
      <trkpt lat="43.65146" lon="17.75385">
        <ele>205.781286</ele>
        <time>2022-05-17T23:21:27.272Z</time>
      </trkpt>
      <trkpt lat="43.65185" lon="17.75402">
        <ele>203.100415</ele>
        <time>2022-05-17T23:21:35.608Z</time>
      </trkpt>
      <trkpt lat="43.6526" lon="17.7545">
        <ele>200.159609</ele>
        <time>2022-05-17T23:21:53.290Z</time>
      </trkpt>
      <trkpt lat="43.65325" lon="17.75508">
        <ele>197.417982</ele>
        <time>2022-05-17T23:22:12.946Z</time>
      </trkpt>
      <trkpt lat="43.65349" lon="17.75521">
        <ele>196.563497</ele>
        <time>2022-05-17T23:22:19.097Z</time>
      </trkpt>
      <trkpt lat="43.65402" lon="17.75516">
        <ele>194.94864</ele>
        <time>2022-05-17T23:22:31.771Z</time>
      </trkpt>
      <trkpt lat="43.65425" lon="17.75534">
        <ele>194.141302</ele>
        <time>2022-05-17T23:22:37.596Z</time>
      </trkpt>
      <trkpt lat="43.6543" lon="17.75557">
        <ele>193.612409</ele>
        <time>2022-05-17T23:22:41.487Z</time>
      </trkpt>
      <trkpt lat="43.6542" lon="17.75587">
        <ele>192.898342</ele>
        <time>2022-05-17T23:22:46.828Z</time>
      </trkpt>
      <trkpt lat="43.65366" lon="17.75644">
        <ele>190.975162</ele>
        <time>2022-05-17T23:23:02.611Z</time>
      </trkpt>
      <trkpt lat="43.65351" lon="17.75664">
        <ele>190.540603</ele>
        <time>2022-05-17T23:23:06.960Z</time>
      </trkpt>
      <trkpt lat="43.65336" lon="17.75705">
        <ele>189.820669</ele>
        <time>2022-05-17T23:23:14.502Z</time>
      </trkpt>
      <trkpt lat="43.65335" lon="17.75729">
        <ele>189.440634</ele>
        <time>2022-05-17T23:23:18.723Z</time>
      </trkpt>
      <trkpt lat="43.65341" lon="17.75753">
        <ele>189.050544</ele>
        <time>2022-05-17T23:23:22.608Z</time>
      </trkpt>
      <trkpt lat="43.65395" lon="17.75876">
        <ele>187.798512</ele>
        <time>2022-05-17T23:23:52.893Z</time>
      </trkpt>
      <trkpt lat="43.65412" lon="17.75904">
        <ele>188.03647</ele>
        <time>2022-05-17T23:24:03.844Z</time>
      </trkpt>
      <trkpt lat="43.65436" lon="17.75925">
        <ele>188.287691</ele>
        <time>2022-05-17T23:24:15.145Z</time>
      </trkpt>
      <trkpt lat="43.65482" lon="17.75959">
        <ele>188.754472</ele>
        <time>2022-05-17T23:24:36.630Z</time>
      </trkpt>
      <trkpt lat="43.65603" lon="17.76055">
        <ele>189.02278</ele>
        <time>2022-05-17T23:25:23.940Z</time>
      </trkpt>
      <trkpt lat="43.65673" lon="17.76109">
        <ele>188.941948</ele>
        <time>2022-05-17T23:25:45.922Z</time>
      </trkpt>
      <trkpt lat="43.65783" lon="17.76198">
        <ele>188.05059</ele>
        <time>2022-05-17T23:26:20.169Z</time>
      </trkpt>
      <trkpt lat="43.65802" lon="17.76211">
        <ele>187.904229</ele>
        <time>2022-05-17T23:26:26.102Z</time>
      </trkpt>
      <trkpt lat="43.65814" lon="17.76218">
        <ele>187.81017</ele>
        <time>2022-05-17T23:26:29.789Z</time>
      </trkpt>
      <trkpt lat="43.65843" lon="17.76229">
        <ele>187.853937</ele>
        <time>2022-05-17T23:26:38.854Z</time>
      </trkpt>
      <trkpt lat="43.65893" lon="17.76251">
        <ele>188.690335</ele>
        <time>2022-05-17T23:26:58.156Z</time>
      </trkpt>
      <trkpt lat="43.65907" lon="17.76257">
        <ele>188.914604</ele>
        <time>2022-05-17T23:27:03.945Z</time>
      </trkpt>
      <trkpt lat="43.65927" lon="17.76266">
        <ele>189.240993</ele>
        <time>2022-05-17T23:27:12.914Z</time>
      </trkpt>
      <trkpt lat="43.65943" lon="17.76273">
        <ele>189.51343</ele>
        <time>2022-05-17T23:27:20.575Z</time>
      </trkpt>
      <trkpt lat="43.66007" lon="17.76286">
        <ele>190.512753</ele>
        <time>2022-05-17T23:27:49.811Z</time>
      </trkpt>
      <trkpt lat="43.6604" lon="17.76284">
        <ele>190.3999</ele>
        <time>2022-05-17T23:28:04.623Z</time>
      </trkpt>
      <trkpt lat="43.66061" lon="17.76284">
        <ele>190.328057</ele>
        <time>2022-05-17T23:28:13.687Z</time>
      </trkpt>
      <trkpt lat="43.66082" lon="17.7629">
        <ele>190.25472</ele>
        <time>2022-05-17T23:28:21.643Z</time>
      </trkpt>
      <trkpt lat="43.66091" lon="17.76293">
        <ele>190.222628</ele>
        <time>2022-05-17T23:28:25.171Z</time>
      </trkpt>
      <trkpt lat="43.6612" lon="17.76303">
        <ele>190.122822</ele>
        <time>2022-05-17T23:28:33.322Z</time>
      </trkpt>
      <trkpt lat="43.66149" lon="17.76315">
        <ele>190.017291</ele>
        <time>2022-05-17T23:28:40.896Z</time>
      </trkpt>
      <trkpt lat="43.66196" lon="17.76337">
        <ele>189.466668</ele>
        <time>2022-05-17T23:28:52.060Z</time>
      </trkpt>
      <trkpt lat="43.66236" lon="17.76363">
        <ele>188.229257</ele>
        <time>2022-05-17T23:29:01.515Z</time>
      </trkpt>
      <trkpt lat="43.66252" lon="17.76405">
        <ele>187.279581</ele>
        <time>2022-05-17T23:29:09.345Z</time>
      </trkpt>
      <trkpt lat="43.66269" lon="17.76469">
        <ele>185.912247</ele>
        <time>2022-05-17T23:29:20.972Z</time>
      </trkpt>
      <trkpt lat="43.66299" lon="17.76533">
        <ele>185.280326</ele>
        <time>2022-05-17T23:29:34.520Z</time>
      </trkpt>
      <trkpt lat="43.66316" lon="17.76568">
        <ele>185.918668</ele>
        <time>2022-05-17T23:29:43.987Z</time>
      </trkpt>
      <trkpt lat="43.66324" lon="17.766">
        <ele>186.432339</ele>
        <time>2022-05-17T23:29:52.743Z</time>
      </trkpt>
      <trkpt lat="43.66334" lon="17.76701">
        <ele>187.973826</ele>
        <time>2022-05-17T23:30:28.842Z</time>
      </trkpt>
      <trkpt lat="43.66342" lon="17.76736">
        <ele>188.53795</ele>
        <time>2022-05-17T23:30:45.891Z</time>
      </trkpt>
      <trkpt lat="43.66352" lon="17.76758">
        <ele>189.344254</ele>
        <time>2022-05-17T23:30:58.870Z</time>
      </trkpt>
      <trkpt lat="43.66386" lon="17.76829">
        <ele>192.599478</ele>
        <time>2022-05-17T23:31:33.561Z</time>
      </trkpt>
      <trkpt lat="43.66412" lon="17.76905">
        <ele>195.768958</ele>
        <time>2022-05-17T23:32:09.361Z</time>
      </trkpt>
      <trkpt lat="43.66435" lon="17.77092">
        <ele>204.138931</ele>
        <time>2022-05-17T23:33:40.152Z</time>
      </trkpt>
      <trkpt lat="43.66437" lon="17.7719">
        <ele>208.731903</ele>
        <time>2022-05-17T23:34:27.795Z</time>
      </trkpt>
      <trkpt lat="43.66422" lon="17.77361">
        <ele>219.08675</ele>
        <time>2022-05-17T23:35:59.306Z</time>
      </trkpt>
      <trkpt lat="43.66432" lon="17.77407">
        <ele>222.066179</ele>
        <time>2022-05-17T23:36:28.370Z</time>
      </trkpt>
      <trkpt lat="43.66451" lon="17.77448">
        <ele>225.079757</ele>
        <time>2022-05-17T23:36:59.453Z</time>
      </trkpt>
      <trkpt lat="43.66483" lon="17.77486">
        <ele>230.410563</ele>
        <time>2022-05-17T23:37:38.841Z</time>
      </trkpt>
      <trkpt lat="43.66713" lon="17.776">
        <ele>262.121585</ele>
        <time>2022-05-17T23:42:00.438Z</time>
      </trkpt>
      <trkpt lat="43.66755" lon="17.77647">
        <ele>269.382095</ele>
        <time>2022-05-17T23:42:58.093Z</time>
      </trkpt>
      <trkpt lat="43.66815" lon="17.77748">
        <ele>279.919147</ele>
        <time>2022-05-17T23:44:35.611Z</time>
      </trkpt>
      <trkpt lat="43.66843" lon="17.77771">
        <ele>283.307647</ele>
        <time>2022-05-17T23:45:05.704Z</time>
      </trkpt>
      <trkpt lat="43.66884" lon="17.77779">
        <ele>287.608874</ele>
        <time>2022-05-17T23:45:42.935Z</time>
      </trkpt>
      <trkpt lat="43.67449" lon="17.77776">
        <ele>318.999969</ele>
        <time>2022-05-17T23:51:40.136Z</time>
      </trkpt>
      <trkpt lat="43.67482" lon="17.7777">
        <ele>317.954387</ele>
        <time>2022-05-17T23:51:47.152Z</time>
      </trkpt>
      <trkpt lat="43.67511" lon="17.77747">
        <ele>316.329317</ele>
        <time>2022-05-17T23:51:53.783Z</time>
      </trkpt>
      <trkpt lat="43.67555" lon="17.77675">
        <ele>312.943259</ele>
        <time>2022-05-17T23:52:07.464Z</time>
      </trkpt>
      <trkpt lat="43.67582" lon="17.77635">
        <ele>310.989967</ele>
        <time>2022-05-17T23:52:15.327Z</time>
      </trkpt>
      <trkpt lat="43.676" lon="17.77614">
        <ele>310.404973</ele>
        <time>2022-05-17T23:52:20.584Z</time>
      </trkpt>
      <trkpt lat="43.67623" lon="17.77594">
        <ele>310.390315</ele>
        <time>2022-05-17T23:52:27.088Z</time>
      </trkpt>
      <trkpt lat="43.67662" lon="17.77571">
        <ele>310.367749</ele>
        <time>2022-05-17T23:52:39.488Z</time>
      </trkpt>
      <trkpt lat="43.67698" lon="17.77557">
        <ele>310.347566</ele>
        <time>2022-05-17T23:52:54.516Z</time>
      </trkpt>
      <trkpt lat="43.67779" lon="17.77552">
        <ele>310.544392</ele>
        <time>2022-05-17T23:53:31.107Z</time>
      </trkpt>
      <trkpt lat="43.67789" lon="17.77552">
        <ele>310.663292</ele>
        <time>2022-05-17T23:53:36.469Z</time>
      </trkpt>
      <trkpt lat="43.6784" lon="17.77564">
        <ele>311.262831</ele>
        <time>2022-05-17T23:53:57.507Z</time>
      </trkpt>
      <trkpt lat="43.6787" lon="17.7758">
        <ele>311.64128</ele>
        <time>2022-05-17T23:54:10.121Z</time>
      </trkpt>
      <trkpt lat="43.67922" lon="17.77625">
        <ele>312.360668</ele>
        <time>2022-05-17T23:54:30.588Z</time>
      </trkpt>
      <trkpt lat="43.67946" lon="17.77659">
        <ele>312.07551</ele>
        <time>2022-05-17T23:54:39.733Z</time>
      </trkpt>
      <trkpt lat="43.6797" lon="17.77699">
        <ele>311.651848</ele>
        <time>2022-05-17T23:54:49.848Z</time>
      </trkpt>
      <trkpt lat="43.67988" lon="17.77746">
        <ele>311.217864</ele>
        <time>2022-05-17T23:55:00.169Z</time>
      </trkpt>
      <trkpt lat="43.68017" lon="17.77854">
        <ele>310.166608</ele>
        <time>2022-05-17T23:55:21.395Z</time>
      </trkpt>
      <trkpt lat="43.68032" lon="17.77956">
        <ele>308.345545</ele>
        <time>2022-05-17T23:55:40.123Z</time>
      </trkpt>
      <trkpt lat="43.68033" lon="17.77978">
        <ele>307.958188</ele>
        <time>2022-05-17T23:55:43.834Z</time>
      </trkpt>
      <trkpt lat="43.68049" lon="17.78076">
        <ele>306.211327</ele>
        <time>2022-05-17T23:56:00.787Z</time>
      </trkpt>
      <trkpt lat="43.68153" lon="17.78296">
        <ele>299.283699</ele>
        <time>2022-05-17T23:56:43.311Z</time>
      </trkpt>
      <trkpt lat="43.68163" lon="17.78345">
        <ele>298.86565</ele>
        <time>2022-05-17T23:56:51.016Z</time>
      </trkpt>
      <trkpt lat="43.68168" lon="17.78426">
        <ele>298.204248</ele>
        <time>2022-05-17T23:57:03.640Z</time>
      </trkpt>
      <trkpt lat="43.68179" lon="17.78487">
        <ele>297.693253</ele>
        <time>2022-05-17T23:57:18.010Z</time>
      </trkpt>
      <trkpt lat="43.68195" lon="17.78525">
        <ele>297.330772</ele>
        <time>2022-05-17T23:57:36.727Z</time>
      </trkpt>
      <trkpt lat="43.68224" lon="17.78568">
        <ele>300.051711</ele>
        <time>2022-05-17T23:58:03.261Z</time>
      </trkpt>
      <trkpt lat="43.68302" lon="17.78671">
        <ele>307.708973</ele>
        <time>2022-05-17T23:59:23.138Z</time>
      </trkpt>
      <trkpt lat="43.68478" lon="17.78843">
        <ele>325.156303</ele>
        <time>2022-05-18T00:02:17.754Z</time>
      </trkpt>
      <trkpt lat="43.68519" lon="17.78907">
        <ele>327.354869</ele>
        <time>2022-05-18T00:02:53.299Z</time>
      </trkpt>
      <trkpt lat="43.68526" lon="17.78926">
        <ele>327.905254</ele>
        <time>2022-05-18T00:03:01.979Z</time>
      </trkpt>
      <trkpt lat="43.68539" lon="17.7897">
        <ele>329.144794</ele>
        <time>2022-05-18T00:03:18.323Z</time>
      </trkpt>
      <trkpt lat="43.68548" lon="17.79028">
        <ele>330.658903</ele>
        <time>2022-05-18T00:03:37.082Z</time>
      </trkpt>
      <trkpt lat="43.68549" lon="17.79094">
        <ele>330.543624</ele>
        <time>2022-05-18T00:03:54.209Z</time>
      </trkpt>
      <trkpt lat="43.68546" lon="17.79111">
        <ele>330.088757</ele>
        <time>2022-05-18T00:03:58.017Z</time>
      </trkpt>
      <trkpt lat="43.68542" lon="17.7914">
        <ele>329.30648</ele>
        <time>2022-05-18T00:04:03.262Z</time>
      </trkpt>
      <trkpt lat="43.68525" lon="17.79195">
        <ele>327.718134</ele>
        <time>2022-05-18T00:04:12.926Z</time>
      </trkpt>
      <trkpt lat="43.68505" lon="17.79234">
        <ele>326.437347</ele>
        <time>2022-05-18T00:04:20.298Z</time>
      </trkpt>
      <trkpt lat="43.68434" lon="17.7938">
        <ele>320.362134</ele>
        <time>2022-05-18T00:04:45.322Z</time>
      </trkpt>
      <trkpt lat="43.68409" lon="17.79452">
        <ele>317.275593</ele>
        <time>2022-05-18T00:04:57.186Z</time>
      </trkpt>
      <trkpt lat="43.68393" lon="17.79553">
        <ele>316.485222</ele>
        <time>2022-05-18T00:05:17.314Z</time>
      </trkpt>
      <trkpt lat="43.68374" lon="17.79639">
        <ele>318.630322</ele>
        <time>2022-05-18T00:05:51.788Z</time>
      </trkpt>
      <trkpt lat="43.68336" lon="17.79749">
        <ele>321.065921</ele>
        <time>2022-05-18T00:06:49.213Z</time>
      </trkpt>
      <trkpt lat="43.68314" lon="17.79832">
        <ele>320.410605</ele>
        <time>2022-05-18T00:07:27.938Z</time>
      </trkpt>
      <trkpt lat="43.68286" lon="17.80067">
        <ele>316.418066</ele>
        <time>2022-05-18T00:08:03.504Z</time>
      </trkpt>
      <trkpt lat="43.68265" lon="17.80173">
        <ele>312.939113</ele>
        <time>2022-05-18T00:08:19.768Z</time>
      </trkpt>
      <trkpt lat="43.68261" lon="17.80192">
        <ele>312.313959</ele>
        <time>2022-05-18T00:08:22.912Z</time>
      </trkpt>
      <trkpt lat="43.6824" lon="17.80296">
        <ele>315.783805</ele>
        <time>2022-05-18T00:08:53.152Z</time>
      </trkpt>
      <trkpt lat="43.6824" lon="17.80434">
        <ele>323.06842</ele>
        <time>2022-05-18T00:10:23.605Z</time>
      </trkpt>
      <trkpt lat="43.68241" lon="17.80468">
        <ele>324.950377</ele>
        <time>2022-05-18T00:10:50.312Z</time>
      </trkpt>
      <trkpt lat="43.68239" lon="17.80555">
        <ele>330.935797</ele>
        <time>2022-05-18T00:11:52.599Z</time>
      </trkpt>
      <trkpt lat="43.68245" lon="17.80796">
        <ele>344.801793</ele>
        <time>2022-05-18T00:14:05.589Z</time>
      </trkpt>
      <trkpt lat="43.68253" lon="17.80888">
        <ele>348.186243</ele>
        <time>2022-05-18T00:14:40.887Z</time>
      </trkpt>
      <trkpt lat="43.68293" lon="17.81066">
        <ele>349.870377</ele>
        <time>2022-05-18T00:15:45.874Z</time>
      </trkpt>
      <trkpt lat="43.68324" lon="17.81147">
        <ele>349.097188</ele>
        <time>2022-05-18T00:16:01.247Z</time>
      </trkpt>
      <trkpt lat="43.68351" lon="17.81197">
        <ele>347.421294</ele>
        <time>2022-05-18T00:16:10.610Z</time>
      </trkpt>
      <trkpt lat="43.68391" lon="17.81265">
        <ele>341.563961</ele>
        <time>2022-05-18T00:16:22.645Z</time>
      </trkpt>
      <trkpt lat="43.68402" lon="17.81296">
        <ele>339.267506</ele>
        <time>2022-05-18T00:16:27.315Z</time>
      </trkpt>
      <trkpt lat="43.68418" lon="17.81405">
        <ele>332.192793</ele>
        <time>2022-05-18T00:16:42.516Z</time>
      </trkpt>
      <trkpt lat="43.68428" lon="17.81473">
        <ele>332.363832</ele>
        <time>2022-05-18T00:16:52.717Z</time>
      </trkpt>
      <trkpt lat="43.68439" lon="17.81536">
        <ele>332.523047</ele>
        <time>2022-05-18T00:17:07.601Z</time>
      </trkpt>
      <trkpt lat="43.68487" lon="17.81658">
        <ele>333.957272</ele>
        <time>2022-05-18T00:18:13.138Z</time>
      </trkpt>
      <trkpt lat="43.68491" lon="17.81668">
        <ele>334.389116</ele>
        <time>2022-05-18T00:18:21.962Z</time>
      </trkpt>
      <trkpt lat="43.68495" lon="17.81677">
        <ele>334.811385</ele>
        <time>2022-05-18T00:18:29.855Z</time>
      </trkpt>
      <trkpt lat="43.68561" lon="17.81838">
        <ele>342.121052</ele>
        <time>2022-05-18T00:20:04.342Z</time>
      </trkpt>
      <trkpt lat="43.68663" lon="17.82031">
        <ele>335.87274</ele>
        <time>2022-05-18T00:20:41.676Z</time>
      </trkpt>
      <trkpt lat="43.68673" lon="17.82082">
        <ele>333.46762</ele>
        <time>2022-05-18T00:20:49.046Z</time>
      </trkpt>
      <trkpt lat="43.68678" lon="17.82191">
        <ele>327.345652</ele>
        <time>2022-05-18T00:21:04.323Z</time>
      </trkpt>
      <trkpt lat="43.68679" lon="17.82291">
        <ele>321.723442</ele>
        <time>2022-05-18T00:21:18.562Z</time>
      </trkpt>
      <trkpt lat="43.68674" lon="17.82325">
        <ele>320.556345</ele>
        <time>2022-05-18T00:21:23.743Z</time>
      </trkpt>
      <trkpt lat="43.68644" lon="17.8241">
        <ele>318.014424</ele>
        <time>2022-05-18T00:21:38.463Z</time>
      </trkpt>
      <trkpt lat="43.68614" lon="17.82478">
        <ele>315.872732</ele>
        <time>2022-05-18T00:21:51.786Z</time>
      </trkpt>
      <trkpt lat="43.68579" lon="17.82494">
        <ele>314.553887</ele>
        <time>2022-05-18T00:22:01.760Z</time>
      </trkpt>
      <trkpt lat="43.68539" lon="17.82573">
        <ele>313.884904</ele>
        <time>2022-05-18T00:22:21.883Z</time>
      </trkpt>
      <trkpt lat="43.6851" lon="17.82597">
        <ele>313.556788</ele>
        <time>2022-05-18T00:22:32.319Z</time>
      </trkpt>
      <trkpt lat="43.68498" lon="17.82606">
        <ele>313.427404</ele>
        <time>2022-05-18T00:22:38.050Z</time>
      </trkpt>
      <trkpt lat="43.68502" lon="17.82615">
        <ele>313.353553</ele>
        <time>2022-05-18T00:22:39.901Z</time>
      </trkpt>
      <trkpt lat="43.68474" lon="17.82641">
        <ele>313.03729</ele>
        <time>2022-05-18T00:22:49.864Z</time>
      </trkpt>
      <trkpt lat="43.68442" lon="17.82689">
        <ele>312.038785</ele>
        <time>2022-05-18T00:23:01.610Z</time>
      </trkpt>
      <trkpt lat="43.68395" lon="17.82764">
        <ele>309.929047</ele>
        <time>2022-05-18T00:23:18.494Z</time>
      </trkpt>
      <trkpt lat="43.68318" lon="17.82869">
        <ele>307.260209</ele>
        <time>2022-05-18T00:23:42.217Z</time>
      </trkpt>
      <trkpt lat="43.68298" lon="17.82902">
        <ele>306.940058</ele>
        <time>2022-05-18T00:23:49.184Z</time>
      </trkpt>
      <trkpt lat="43.6828" lon="17.82944">
        <ele>306.570546</ele>
        <time>2022-05-18T00:23:58.269Z</time>
      </trkpt>
      <trkpt lat="43.68271" lon="17.82975">
        <ele>306.321654</ele>
        <time>2022-05-18T00:24:05.780Z</time>
      </trkpt>
      <trkpt lat="43.68266" lon="17.83057">
        <ele>305.703714</ele>
        <time>2022-05-18T00:24:30.719Z</time>
      </trkpt>
      <trkpt lat="43.68273" lon="17.83096">
        <ele>305.635407</ele>
        <time>2022-05-18T00:24:42.365Z</time>
      </trkpt>
      <trkpt lat="43.68291" lon="17.83137">
        <ele>305.576464</ele>
        <time>2022-05-18T00:24:53.438Z</time>
      </trkpt>
      <trkpt lat="43.68314" lon="17.83171">
        <ele>305.517858</ele>
        <time>2022-05-18T00:25:03.652Z</time>
      </trkpt>
      <trkpt lat="43.68332" lon="17.83187">
        <ele>305.481178</ele>
        <time>2022-05-18T00:25:11.607Z</time>
      </trkpt>
      <trkpt lat="43.68347" lon="17.83196">
        <ele>305.453813</ele>
        <time>2022-05-18T00:25:15.714Z</time>
      </trkpt>
      <trkpt lat="43.68366" lon="17.83207">
        <ele>305.417066</ele>
        <time>2022-05-18T00:25:23.020Z</time>
      </trkpt>
      <trkpt lat="43.68398" lon="17.83211">
        <ele>305.066531</ele>
        <time>2022-05-18T00:25:31.520Z</time>
      </trkpt>
      <trkpt lat="43.6843" lon="17.83205">
        <ele>303.395253</ele>
        <time>2022-05-18T00:25:38.874Z</time>
      </trkpt>
      <trkpt lat="43.68508" lon="17.83158">
        <ele>298.894671</ele>
        <time>2022-05-18T00:25:56.232Z</time>
      </trkpt>
      <trkpt lat="43.68586" lon="17.83147">
        <ele>295.023337</ele>
        <time>2022-05-18T00:26:11.857Z</time>
      </trkpt>
      <trkpt lat="43.68594" lon="17.83145">
        <ele>294.688449</ele>
        <time>2022-05-18T00:26:13.612Z</time>
      </trkpt>
      <trkpt lat="43.68622" lon="17.8313">
        <ele>293.464427</ele>
        <time>2022-05-18T00:26:20.017Z</time>
      </trkpt>
      <trkpt lat="43.68721" lon="17.83012">
        <ele>288.634471</ele>
        <time>2022-05-18T00:26:49.356Z</time>
      </trkpt>
      <trkpt lat="43.68736" lon="17.83001">
        <ele>288.720713</ele>
        <time>2022-05-18T00:26:53.948Z</time>
      </trkpt>
      <trkpt lat="43.68776" lon="17.82986">
        <ele>288.927012</ele>
        <time>2022-05-18T00:27:07.366Z</time>
      </trkpt>
      <trkpt lat="43.68815" lon="17.82988">
        <ele>289.124882</ele>
        <time>2022-05-18T00:27:22.014Z</time>
      </trkpt>
      <trkpt lat="43.68823" lon="17.82993">
        <ele>289.170914</ele>
        <time>2022-05-18T00:27:25.805Z</time>
      </trkpt>
      <trkpt lat="43.68836" lon="17.83">
        <ele>289.242006</ele>
        <time>2022-05-18T00:27:32.099Z</time>
      </trkpt>
      <trkpt lat="43.68913" lon="17.83072">
        <ele>290.037252</ele>
        <time>2022-05-18T00:28:12.210Z</time>
      </trkpt>
      <trkpt lat="43.68949" lon="17.83116">
        <ele>290.641237</ele>
        <time>2022-05-18T00:28:29.454Z</time>
      </trkpt>
      <trkpt lat="43.68967" lon="17.83151">
        <ele>291.032231</ele>
        <time>2022-05-18T00:28:39.528Z</time>
      </trkpt>
      <trkpt lat="43.69006" lon="17.83241">
        <ele>292.107752</ele>
        <time>2022-05-18T00:29:08.412Z</time>
      </trkpt>
      <trkpt lat="43.69009" lon="17.83248">
        <ele>292.224205</ele>
        <time>2022-05-18T00:29:10.408Z</time>
      </trkpt>
      <trkpt lat="43.69039" lon="17.83281">
        <ele>292.951312</ele>
        <time>2022-05-18T00:29:25.985Z</time>
      </trkpt>
      <trkpt lat="43.69074" lon="17.83298">
        <ele>293.668717</ele>
        <time>2022-05-18T00:29:41.120Z</time>
      </trkpt>
      <trkpt lat="43.69129" lon="17.83303">
        <ele>294.72323</ele>
        <time>2022-05-18T00:30:03.918Z</time>
      </trkpt>
      <trkpt lat="43.69169" lon="17.83315">
        <ele>295.739136</ele>
        <time>2022-05-18T00:30:21.888Z</time>
      </trkpt>
      <trkpt lat="43.69185" lon="17.83328">
        <ele>296.380939</ele>
        <time>2022-05-18T00:30:31.690Z</time>
      </trkpt>
      <trkpt lat="43.69204" lon="17.83357">
        <ele>297.337136</ele>
        <time>2022-05-18T00:30:48.924Z</time>
      </trkpt>
      <trkpt lat="43.69219" lon="17.83412">
        <ele>298.779282</ele>
        <time>2022-05-18T00:31:13.209Z</time>
      </trkpt>
      <trkpt lat="43.69214" lon="17.83464">
        <ele>300.061272</ele>
        <time>2022-05-18T00:31:32.587Z</time>
      </trkpt>
      <trkpt lat="43.69169" lon="17.83567">
        <ele>301.731247</ele>
        <time>2022-05-18T00:32:09.477Z</time>
      </trkpt>
      <trkpt lat="43.69152" lon="17.83622">
        <ele>302.107467</ele>
        <time>2022-05-18T00:32:25.736Z</time>
      </trkpt>
      <trkpt lat="43.69126" lon="17.83858">
        <ele>302.900949</ele>
        <time>2022-05-18T00:33:18.178Z</time>
      </trkpt>
      <trkpt lat="43.69113" lon="17.84023">
        <ele>303.075475</ele>
        <time>2022-05-18T00:33:56.263Z</time>
      </trkpt>
      <trkpt lat="43.69136" lon="17.84108">
        <ele>303.370325</ele>
        <time>2022-05-18T00:34:20.602Z</time>
      </trkpt>
      <trkpt lat="43.69162" lon="17.84153">
        <ele>303.55671</ele>
        <time>2022-05-18T00:34:35.448Z</time>
      </trkpt>
      <trkpt lat="43.69192" lon="17.84183">
        <ele>303.726208</ele>
        <time>2022-05-18T00:34:48.280Z</time>
      </trkpt>
      <trkpt lat="43.69345" lon="17.84269">
        <ele>302.222899</ele>
        <time>2022-05-18T00:35:33.647Z</time>
      </trkpt>
      <trkpt lat="43.69384" lon="17.84296">
        <ele>301.319255</ele>
        <time>2022-05-18T00:35:44.065Z</time>
      </trkpt>
      <trkpt lat="43.69412" lon="17.84334">
        <ele>299.977626</ele>
        <time>2022-05-18T00:35:53.396Z</time>
      </trkpt>
      <trkpt lat="43.6942" lon="17.84358">
        <ele>299.319995</ele>
        <time>2022-05-18T00:35:57.977Z</time>
      </trkpt>
      <trkpt lat="43.69427" lon="17.84406">
        <ele>298.088423</ele>
        <time>2022-05-18T00:36:06.300Z</time>
      </trkpt>
      <trkpt lat="43.69424" lon="17.84458">
        <ele>296.814695</ele>
        <time>2022-05-18T00:36:14.791Z</time>
      </trkpt>
      <trkpt lat="43.69373" lon="17.84689">
        <ele>286.821459</ele>
        <time>2022-05-18T00:36:50.304Z</time>
      </trkpt>
      <trkpt lat="43.69352" lon="17.84816">
        <ele>284.180528</ele>
        <time>2022-05-18T00:37:09.435Z</time>
      </trkpt>
      <trkpt lat="43.69346" lon="17.84858">
        <ele>283.883602</ele>
        <time>2022-05-18T00:37:16.175Z</time>
      </trkpt>
      <trkpt lat="43.69318" lon="17.85137">
        <ele>289.547842</ele>
        <time>2022-05-18T00:39:04.056Z</time>
      </trkpt>
      <trkpt lat="43.69317" lon="17.85144">
        <ele>289.859314</ele>
        <time>2022-05-18T00:39:08.876Z</time>
      </trkpt>
      <trkpt lat="43.69313" lon="17.85182">
        <ele>291.426833</ele>
        <time>2022-05-18T00:39:32.601Z</time>
      </trkpt>
      <trkpt lat="43.69274" lon="17.85364">
        <ele>299.635944</ele>
        <time>2022-05-18T00:41:15.957Z</time>
      </trkpt>
      <trkpt lat="43.69271" lon="17.85402">
        <ele>301.339765</ele>
        <time>2022-05-18T00:41:33.471Z</time>
      </trkpt>
      <trkpt lat="43.69274" lon="17.85446">
        <ele>303.283481</ele>
        <time>2022-05-18T00:41:51.563Z</time>
      </trkpt>
      <trkpt lat="43.69303" lon="17.85636">
        <ele>305.387368</ele>
        <time>2022-05-18T00:42:43.766Z</time>
      </trkpt>
      <trkpt lat="43.69313" lon="17.85732">
        <ele>305.97692</ele>
        <time>2022-05-18T00:43:03.875Z</time>
      </trkpt>
      <trkpt lat="43.69313" lon="17.8578">
        <ele>306.148811</ele>
        <time>2022-05-18T00:43:14.740Z</time>
      </trkpt>
      <trkpt lat="43.693" lon="17.85891">
        <ele>306.545944</ele>
        <time>2022-05-18T00:43:41.580Z</time>
      </trkpt>
      <trkpt lat="43.69285" lon="17.86005">
        <ele>307.059151</ele>
        <time>2022-05-18T00:44:14.683Z</time>
      </trkpt>
      <trkpt lat="43.69246" lon="17.86201">
        <ele>308.154857</ele>
        <time>2022-05-18T00:45:06.387Z</time>
      </trkpt>
      <trkpt lat="43.69221" lon="17.86398">
        <ele>307.803188</ele>
        <time>2022-05-18T00:45:49.318Z</time>
      </trkpt>
      <trkpt lat="43.69186" lon="17.86541">
        <ele>307.472295</ele>
        <time>2022-05-18T00:46:19.954Z</time>
      </trkpt>
      <trkpt lat="43.69168" lon="17.86748">
        <ele>306.386993</ele>
        <time>2022-05-18T00:47:06.219Z</time>
      </trkpt>
      <trkpt lat="43.69158" lon="17.86799">
        <ele>305.800517</ele>
        <time>2022-05-18T00:47:18.257Z</time>
      </trkpt>
      <trkpt lat="43.69101" lon="17.86973">
        <ele>301.578433</ele>
        <time>2022-05-18T00:47:50.529Z</time>
      </trkpt>
      <trkpt lat="43.69093" lon="17.87073">
        <ele>296.976701</ele>
        <time>2022-05-18T00:48:05.270Z</time>
      </trkpt>
      <trkpt lat="43.69079" lon="17.87132">
        <ele>294.160906</ele>
        <time>2022-05-18T00:48:14.025Z</time>
      </trkpt>
      <trkpt lat="43.69046" lon="17.87178">
        <ele>291.47701</ele>
        <time>2022-05-18T00:48:22.947Z</time>
      </trkpt>
      <trkpt lat="43.6896" lon="17.87238">
        <ele>286.272015</ele>
        <time>2022-05-18T00:48:42.184Z</time>
      </trkpt>
      <trkpt lat="43.68915" lon="17.87246">
        <ele>283.856014</ele>
        <time>2022-05-18T00:48:52.701Z</time>
      </trkpt>
      <trkpt lat="43.68876" lon="17.87223">
        <ele>285.036243</ele>
        <time>2022-05-18T00:49:10.117Z</time>
      </trkpt>
      <trkpt lat="43.6882" lon="17.8715">
        <ele>289.020866</ele>
        <time>2022-05-18T00:49:57.948Z</time>
      </trkpt>
      <trkpt lat="43.68796" lon="17.87139">
        <ele>290.318007</ele>
        <time>2022-05-18T00:50:16.261Z</time>
      </trkpt>
      <trkpt lat="43.68763" lon="17.87139">
        <ele>292.016179</ele>
        <time>2022-05-18T00:50:43.832Z</time>
      </trkpt>
      <trkpt lat="43.68742" lon="17.87151">
        <ele>293.256527</ele>
        <time>2022-05-18T00:51:02.171Z</time>
      </trkpt>
      <trkpt lat="43.6872" lon="17.87174">
        <ele>294.85799</ele>
        <time>2022-05-18T00:51:20.967Z</time>
      </trkpt>
      <trkpt lat="43.68708" lon="17.87176">
        <ele>295.598644</ele>
        <time>2022-05-18T00:51:32.670Z</time>
      </trkpt>
      <trkpt lat="43.68703" lon="17.87183">
        <ele>296.014075</ele>
        <time>2022-05-18T00:51:36.904Z</time>
      </trkpt>
      <trkpt lat="43.6869" lon="17.87229">
        <ele>298.140226</ele>
        <time>2022-05-18T00:52:03.913Z</time>
      </trkpt>
      <trkpt lat="43.68693" lon="17.87343">
        <ele>303.00412</ele>
        <time>2022-05-18T00:52:54.528Z</time>
      </trkpt>
      <trkpt lat="43.68704" lon="17.87399">
        <ele>302.654494</ele>
        <time>2022-05-18T00:53:09.877Z</time>
      </trkpt>
      <trkpt lat="43.68701" lon="17.87455">
        <ele>302.100955</ele>
        <time>2022-05-18T00:53:20.078Z</time>
      </trkpt>
      <trkpt lat="43.68671" lon="17.87539">
        <ele>301.167112</ele>
        <time>2022-05-18T00:53:36.651Z</time>
      </trkpt>
      <trkpt lat="43.68647" lon="17.87569">
        <ele>300.715224</ele>
        <time>2022-05-18T00:53:44.587Z</time>
      </trkpt>
      <trkpt lat="43.68633" lon="17.87619">
        <ele>299.795099</ele>
        <time>2022-05-18T00:53:53.765Z</time>
      </trkpt>
      <trkpt lat="43.68633" lon="17.87634">
        <ele>299.52469</ele>
        <time>2022-05-18T00:53:56.208Z</time>
      </trkpt>
      <trkpt lat="43.68587" lon="17.87744">
        <ele>297.328257</ele>
        <time>2022-05-18T00:54:18.533Z</time>
      </trkpt>
      <trkpt lat="43.68531" lon="17.87922">
        <ele>294.577763</ele>
        <time>2022-05-18T00:54:54.711Z</time>
      </trkpt>
      <trkpt lat="43.68504" lon="17.88057">
        <ele>293.009233</ele>
        <time>2022-05-18T00:55:19.128Z</time>
      </trkpt>
      <trkpt lat="43.68487" lon="17.88221">
        <ele>292.13431</ele>
        <time>2022-05-18T00:55:50.525Z</time>
      </trkpt>
      <trkpt lat="43.68446" lon="17.88353">
        <ele>293.277409</ele>
        <time>2022-05-18T00:56:33.415Z</time>
      </trkpt>
      <trkpt lat="43.68434" lon="17.88408">
        <ele>294.141829</ele>
        <time>2022-05-18T00:56:52.644Z</time>
      </trkpt>
      <trkpt lat="43.68434" lon="17.88488">
        <ele>295.351955</ele>
        <time>2022-05-18T00:57:19.394Z</time>
      </trkpt>
      <trkpt lat="43.68462" lon="17.88581">
        <ele>295.462612</ele>
        <time>2022-05-18T00:57:51.021Z</time>
      </trkpt>
      <trkpt lat="43.68545" lon="17.88724">
        <ele>294.872023</ele>
        <time>2022-05-18T00:58:24.848Z</time>
      </trkpt>
      <trkpt lat="43.68567" lon="17.88769">
        <ele>294.079366</ele>
        <time>2022-05-18T00:58:34.356Z</time>
      </trkpt>
      <trkpt lat="43.68581" lon="17.88815">
        <ele>293.35108</ele>
        <time>2022-05-18T00:58:43.403Z</time>
      </trkpt>
      <trkpt lat="43.68592" lon="17.88875">
        <ele>292.446485</ele>
        <time>2022-05-18T00:58:55.188Z</time>
      </trkpt>
      <trkpt lat="43.68594" lon="17.88931">
        <ele>291.621233</ele>
        <time>2022-05-18T00:59:05.282Z</time>
      </trkpt>
      <trkpt lat="43.68584" lon="17.88988">
        <ele>289.507943</ele>
        <time>2022-05-18T00:59:14.813Z</time>
      </trkpt>
      <trkpt lat="43.68563" lon="17.8904">
        <ele>287.172473</ele>
        <time>2022-05-18T00:59:23.797Z</time>
      </trkpt>
      <trkpt lat="43.68533" lon="17.89084">
        <ele>284.746055</ele>
        <time>2022-05-18T00:59:32.782Z</time>
      </trkpt>
      <trkpt lat="43.68457" lon="17.89184">
        <ele>279.473051</ele>
        <time>2022-05-18T00:59:53.655Z</time>
      </trkpt>
      <trkpt lat="43.68438" lon="17.89212">
        <ele>278.193715</ele>
        <time>2022-05-18T00:59:59.364Z</time>
      </trkpt>
      <trkpt lat="43.68411" lon="17.89251">
        <ele>276.443576</ele>
        <time>2022-05-18T01:00:07.372Z</time>
      </trkpt>
      <trkpt lat="43.68404" lon="17.89264">
        <ele>275.890362</ele>
        <time>2022-05-18T01:00:09.964Z</time>
      </trkpt>
      <trkpt lat="43.68385" lon="17.89306">
        <ele>274.277494</ele>
        <time>2022-05-18T01:00:18.306Z</time>
      </trkpt>
      <trkpt lat="43.6838" lon="17.89322">
        <ele>273.692624</ele>
        <time>2022-05-18T01:00:21.998Z</time>
      </trkpt>
      <trkpt lat="43.68376" lon="17.89338">
        <ele>273.643562</ele>
        <time>2022-05-18T01:00:25.395Z</time>
      </trkpt>
      <trkpt lat="43.68364" lon="17.8941">
        <ele>275.00393</ele>
        <time>2022-05-18T01:00:46.802Z</time>
      </trkpt>
      <trkpt lat="43.68364" lon="17.89471">
        <ele>276.140243</ele>
        <time>2022-05-18T01:01:10.015Z</time>
      </trkpt>
      <trkpt lat="43.68383" lon="17.89599">
        <ele>278.554042</ele>
        <time>2022-05-18T01:02:01.180Z</time>
      </trkpt>
      <trkpt lat="43.68387" lon="17.89628">
        <ele>279.122333</ele>
        <time>2022-05-18T01:02:11.908Z</time>
      </trkpt>
      <trkpt lat="43.68395" lon="17.89713">
        <ele>280.765309</ele>
        <time>2022-05-18T01:02:40.734Z</time>
      </trkpt>
      <trkpt lat="43.68391" lon="17.89803">
        <ele>282.484891</ele>
        <time>2022-05-18T01:03:09.243Z</time>
      </trkpt>
      <trkpt lat="43.68376" lon="17.89877">
        <ele>282.680426</ele>
        <time>2022-05-18T01:03:30.442Z</time>
      </trkpt>
      <trkpt lat="43.68346" lon="17.89965">
        <ele>282.493932</ele>
        <time>2022-05-18T01:03:52.812Z</time>
      </trkpt>
      <trkpt lat="43.68233" lon="17.90261">
        <ele>278.365588</ele>
        <time>2022-05-18T01:04:52.824Z</time>
      </trkpt>
      <trkpt lat="43.68211" lon="17.90333">
        <ele>276.614412</ele>
        <time>2022-05-18T01:05:04.901Z</time>
      </trkpt>
      <trkpt lat="43.68187" lon="17.90403">
        <ele>274.827211</ele>
        <time>2022-05-18T01:05:17.143Z</time>
      </trkpt>
      <trkpt lat="43.68169" lon="17.90436">
        <ele>273.887472</ele>
        <time>2022-05-18T01:05:23.895Z</time>
      </trkpt>
      <trkpt lat="43.68137" lon="17.90474">
        <ele>272.602684</ele>
        <time>2022-05-18T01:05:34.198Z</time>
      </trkpt>
      <trkpt lat="43.68112" lon="17.90489">
        <ele>272.945357</ele>
        <time>2022-05-18T01:05:41.581Z</time>
      </trkpt>
      <trkpt lat="43.68099" lon="17.90496">
        <ele>273.122392</ele>
        <time>2022-05-18T01:05:45.601Z</time>
      </trkpt>
      <trkpt lat="43.68049" lon="17.90499">
        <ele>273.759389</ele>
        <time>2022-05-18T01:06:02.544Z</time>
      </trkpt>
      <trkpt lat="43.67954" lon="17.90489">
        <ele>275.067026</ele>
        <time>2022-05-18T01:06:48.923Z</time>
      </trkpt>
      <trkpt lat="43.67877" lon="17.90496">
        <ele>277.047095</ele>
        <time>2022-05-18T01:07:29.089Z</time>
      </trkpt>
      <trkpt lat="43.6782" lon="17.9051">
        <ele>278.545088</ele>
        <time>2022-05-18T01:07:55.149Z</time>
      </trkpt>
      <trkpt lat="43.67775" lon="17.90541">
        <ele>279.628661</ele>
        <time>2022-05-18T01:08:13.767Z</time>
      </trkpt>
      <trkpt lat="43.67689" lon="17.90652">
        <ele>280.848502</ele>
        <time>2022-05-18T01:08:54.264Z</time>
      </trkpt>
      <trkpt lat="43.67577" lon="17.90754">
        <ele>282.286236</ele>
        <time>2022-05-18T01:09:47.950Z</time>
      </trkpt>
      <trkpt lat="43.67528" lon="17.90821">
        <ele>283.054964</ele>
        <time>2022-05-18T01:10:14.945Z</time>
      </trkpt>
      <trkpt lat="43.67503" lon="17.90871">
        <ele>282.996785</ele>
        <time>2022-05-18T01:10:28.927Z</time>
      </trkpt>
      <trkpt lat="43.67489" lon="17.90914">
        <ele>282.363468</ele>
        <time>2022-05-18T01:10:38.517Z</time>
      </trkpt>
      <trkpt lat="43.67435" lon="17.91135">
        <ele>279.043046</ele>
        <time>2022-05-18T01:11:18.035Z</time>
      </trkpt>
      <trkpt lat="43.6741" lon="17.91214">
        <ele>277.596331</ele>
        <time>2022-05-18T01:11:32.340Z</time>
      </trkpt>
      <trkpt lat="43.67394" lon="17.91244">
        <ele>276.965812</ele>
        <time>2022-05-18T01:11:38.817Z</time>
      </trkpt>
      <trkpt lat="43.67351" lon="17.91286">
        <ele>275.830658</ele>
        <time>2022-05-18T01:11:51.707Z</time>
      </trkpt>
      <trkpt lat="43.67232" lon="17.91333">
        <ele>276.413124</ele>
        <time>2022-05-18T01:12:32.907Z</time>
      </trkpt>
      <trkpt lat="43.6721" lon="17.91349">
        <ele>276.532084</ele>
        <time>2022-05-18T01:12:43.111Z</time>
      </trkpt>
      <trkpt lat="43.67209" lon="17.91349">
        <ele>276.533831</ele>
        <time>2022-05-18T01:12:43.251Z</time>
      </trkpt>
      <trkpt lat="43.67175" lon="17.91401">
        <ele>277.132826</ele>
        <time>2022-05-18T01:13:04.185Z</time>
      </trkpt>
      <trkpt lat="43.67164" lon="17.91445">
        <ele>277.806674</ele>
        <time>2022-05-18T01:13:18.244Z</time>
      </trkpt>
      <trkpt lat="43.67162" lon="17.91472">
        <ele>278.201565</ele>
        <time>2022-05-18T01:13:26.516Z</time>
      </trkpt>
      <trkpt lat="43.67155" lon="17.9159">
        <ele>279.920761</ele>
        <time>2022-05-18T01:14:05.251Z</time>
      </trkpt>
      <trkpt lat="43.67143" lon="17.91664">
        <ele>280.549663</ele>
        <time>2022-05-18T01:14:27.845Z</time>
      </trkpt>
      <trkpt lat="43.67116" lon="17.91742">
        <ele>281.014693</ele>
        <time>2022-05-18T01:14:47.204Z</time>
      </trkpt>
      <trkpt lat="43.67041" lon="17.91897">
        <ele>282.017857</ele>
        <time>2022-05-18T01:15:33.181Z</time>
      </trkpt>
      <trkpt lat="43.67016" lon="17.91964">
        <ele>282.412927</ele>
        <time>2022-05-18T01:15:51.992Z</time>
      </trkpt>
      <trkpt lat="43.66988" lon="17.92085">
        <ele>283.171667</ele>
        <time>2022-05-18T01:16:25.606Z</time>
      </trkpt>
      <trkpt lat="43.66909" lon="17.92542">
        <ele>286.967963</ele>
        <time>2022-05-18T01:18:34.375Z</time>
      </trkpt>
      <trkpt lat="43.66881" lon="17.92669">
        <ele>287.205774</ele>
        <time>2022-05-18T01:19:05.465Z</time>
      </trkpt>
      <trkpt lat="43.66855" lon="17.92738">
        <ele>287.345326</ele>
        <time>2022-05-18T01:19:22.400Z</time>
      </trkpt>
      <trkpt lat="43.6679" lon="17.92883">
        <ele>288.428992</ele>
        <time>2022-05-18T01:20:02.490Z</time>
      </trkpt>
      <trkpt lat="43.66657" lon="17.93158">
        <ele>292.551672</ele>
        <time>2022-05-18T01:21:44.365Z</time>
      </trkpt>
      <trkpt lat="43.66586" lon="17.93279">
        <ele>294.732742</ele>
        <time>2022-05-18T01:22:33.894Z</time>
      </trkpt>
      <trkpt lat="43.66562" lon="17.93334">
        <ele>295.608799</ele>
        <time>2022-05-18T01:22:53.366Z</time>
      </trkpt>
      <trkpt lat="43.66536" lon="17.93416">
        <ele>296.542883</ele>
        <time>2022-05-18T01:23:19.463Z</time>
      </trkpt>
      <trkpt lat="43.66429" lon="17.93929">
        <ele>295.535938</ele>
        <time>2022-05-18T01:25:24.783Z</time>
      </trkpt>
      <trkpt lat="43.66422" lon="17.93976">
        <ele>294.039959</ele>
        <time>2022-05-18T01:25:32.290Z</time>
      </trkpt>
      <trkpt lat="43.6642" lon="17.94122">
        <ele>289.37371</ele>
        <time>2022-05-18T01:25:53.853Z</time>
      </trkpt>
      <trkpt lat="43.66414" lon="17.94174">
        <ele>286.929363</ele>
        <time>2022-05-18T01:26:01.330Z</time>
      </trkpt>
      <trkpt lat="43.66392" lon="17.94236">
        <ele>283.72767</ele>
        <time>2022-05-18T01:26:11.218Z</time>
      </trkpt>
      <trkpt lat="43.66351" lon="17.94298">
        <ele>279.805943</ele>
        <time>2022-05-18T01:26:23.627Z</time>
      </trkpt>
      <trkpt lat="43.66285" lon="17.94385">
        <ele>276.99821</ele>
        <time>2022-05-18T01:26:43.404Z</time>
      </trkpt>
      <trkpt lat="43.6624" lon="17.9442">
        <ele>275.967215</ele>
        <time>2022-05-18T01:26:55.897Z</time>
      </trkpt>
      <trkpt lat="43.66181" lon="17.94438">
        <ele>274.794772</ele>
        <time>2022-05-18T01:27:16.524Z</time>
      </trkpt>
      <trkpt lat="43.66103" lon="17.94436">
        <ele>277.180657</ele>
        <time>2022-05-18T01:27:51.739Z</time>
      </trkpt>
      <trkpt lat="43.66099" lon="17.94436">
        <ele>277.303544</ele>
        <time>2022-05-18T01:27:53.961Z</time>
      </trkpt>
      <trkpt lat="43.66072" lon="17.94443">
        <ele>278.163265</ele>
        <time>2022-05-18T01:28:08.233Z</time>
      </trkpt>
      <trkpt lat="43.66033" lon="17.9447">
        <ele>279.496687</ele>
        <time>2022-05-18T01:28:31.447Z</time>
      </trkpt>
      <trkpt lat="43.65992" lon="17.94529">
        <ele>281.456871</ele>
        <time>2022-05-18T01:29:04.160Z</time>
      </trkpt>
      <trkpt lat="43.65991" lon="17.94531">
        <ele>281.530998</ele>
        <time>2022-05-18T01:29:05.276Z</time>
      </trkpt>
      <trkpt lat="43.65963" lon="17.94574">
        <ele>282.989015</ele>
        <time>2022-05-18T01:29:28.821Z</time>
      </trkpt>
      <trkpt lat="43.65927" lon="17.94614">
        <ele>284.574558</ele>
        <time>2022-05-18T01:29:52.377Z</time>
      </trkpt>
      <trkpt lat="43.65781" lon="17.94729">
        <ele>287.44107</ele>
        <time>2022-05-18T01:31:06.403Z</time>
      </trkpt>
      <trkpt lat="43.65745" lon="17.94783">
        <ele>287.844456</ele>
        <time>2022-05-18T01:31:20.067Z</time>
      </trkpt>
      <trkpt lat="43.65711" lon="17.94858">
        <ele>286.985534</ele>
        <time>2022-05-18T01:31:35.956Z</time>
      </trkpt>
      <trkpt lat="43.65685" lon="17.94928">
        <ele>285.844753</ele>
        <time>2022-05-18T01:31:50.124Z</time>
      </trkpt>
      <trkpt lat="43.65663" lon="17.94997">
        <ele>284.744739</ele>
        <time>2022-05-18T01:32:03.340Z</time>
      </trkpt>
      <trkpt lat="43.65652" lon="17.95038">
        <ele>284.213674</ele>
        <time>2022-05-18T01:32:10.819Z</time>
      </trkpt>
      <trkpt lat="43.65647" lon="17.95058">
        <ele>284.038611</ele>
        <time>2022-05-18T01:32:14.410Z</time>
      </trkpt>
      <trkpt lat="43.6564" lon="17.95116">
        <ele>283.553088</ele>
        <time>2022-05-18T01:32:24.832Z</time>
      </trkpt>
      <trkpt lat="43.6564" lon="17.95124">
        <ele>283.492394</ele>
        <time>2022-05-18T01:32:26.314Z</time>
      </trkpt>
      <trkpt lat="43.65636" lon="17.95188">
        <ele>282.960778</ele>
        <time>2022-05-18T01:32:39.381Z</time>
      </trkpt>
      <trkpt lat="43.65634" lon="17.95228">
        <ele>282.624602</ele>
        <time>2022-05-18T01:32:49.262Z</time>
      </trkpt>
      <trkpt lat="43.65622" lon="17.95342">
        <ele>282.311407</ele>
        <time>2022-05-18T01:33:13.120Z</time>
      </trkpt>
      <trkpt lat="43.65617" lon="17.9536">
        <ele>282.316173</ele>
        <time>2022-05-18T01:33:16.994Z</time>
      </trkpt>
      <trkpt lat="43.65615" lon="17.95368">
        <ele>282.31826</ele>
        <time>2022-05-18T01:33:18.681Z</time>
      </trkpt>
      <trkpt lat="43.65613" lon="17.95376">
        <ele>282.320275</ele>
        <time>2022-05-18T01:33:20.235Z</time>
      </trkpt>
      <trkpt lat="43.65585" lon="17.95461">
        <ele>282.343197</ele>
        <time>2022-05-18T01:33:41.504Z</time>
      </trkpt>
      <trkpt lat="43.65575" lon="17.95489">
        <ele>282.350917</ele>
        <time>2022-05-18T01:33:49.746Z</time>
      </trkpt>
      <trkpt lat="43.65561" lon="17.95524">
        <ele>282.527671</ele>
        <time>2022-05-18T01:34:00.722Z</time>
      </trkpt>
      <trkpt lat="43.65472" lon="17.95761">
        <ele>283.650817</ele>
        <time>2022-05-18T01:35:12.313Z</time>
      </trkpt>
      <trkpt lat="43.65464" lon="17.95782">
        <ele>283.49187</ele>
        <time>2022-05-18T01:35:16.878Z</time>
      </trkpt>
      <trkpt lat="43.65455" lon="17.95813">
        <ele>283.264718</ele>
        <time>2022-05-18T01:35:23.298Z</time>
      </trkpt>
      <trkpt lat="43.65451" lon="17.95826">
        <ele>283.171852</ele>
        <time>2022-05-18T01:35:25.782Z</time>
      </trkpt>
      <trkpt lat="43.65448" lon="17.95838">
        <ele>283.087515</ele>
        <time>2022-05-18T01:35:28.136Z</time>
      </trkpt>
      <trkpt lat="43.65444" lon="17.95855">
        <ele>282.964924</ele>
        <time>2022-05-18T01:35:31.537Z</time>
      </trkpt>
      <trkpt lat="43.65437" lon="17.95892">
        <ele>282.705982</ele>
        <time>2022-05-18T01:35:38.483Z</time>
      </trkpt>
      <trkpt lat="43.65428" lon="17.9594">
        <ele>282.376807</ele>
        <time>2022-05-18T01:35:47.355Z</time>
      </trkpt>
      <trkpt lat="43.65426" lon="17.95981">
        <ele>281.988022</ele>
        <time>2022-05-18T01:35:55.198Z</time>
      </trkpt>
      <trkpt lat="43.65426" lon="17.95986">
        <ele>281.933188</ele>
        <time>2022-05-18T01:35:56.049Z</time>
      </trkpt>
      <trkpt lat="43.65423" lon="17.95988">
        <ele>281.869307</ele>
        <time>2022-05-18T01:35:57.187Z</time>
      </trkpt>
      <trkpt lat="43.65416" lon="17.96009">
        <ele>281.6215</ele>
        <time>2022-05-18T01:36:01.648Z</time>
      </trkpt>
      <trkpt lat="43.65382" lon="17.96033">
        <ele>281.049501</ele>
        <time>2022-05-18T01:36:12.068Z</time>
      </trkpt>
      <trkpt lat="43.6536" lon="17.9604">
        <ele>280.706686</ele>
        <time>2022-05-18T01:36:18.120Z</time>
      </trkpt>
      <trkpt lat="43.65327" lon="17.96039">
        <ele>280.215509</ele>
        <time>2022-05-18T01:36:27.042Z</time>
      </trkpt>
      <trkpt lat="43.65305" lon="17.96027">
        <ele>279.859931</ele>
        <time>2022-05-18T01:36:33.309Z</time>
      </trkpt>
      <trkpt lat="43.65294" lon="17.96035">
        <ele>279.673168</ele>
        <time>2022-05-18T01:36:36.361Z</time>
      </trkpt>
      <trkpt lat="43.65253" lon="17.96057">
        <ele>279.573569</ele>
        <time>2022-05-18T01:36:47.702Z</time>
      </trkpt>
      <trkpt lat="43.65214" lon="17.9607">
        <ele>279.573569</ele>
        <time>2022-05-18T01:36:57.836Z</time>
      </trkpt>
      <trkpt lat="43.65186" lon="17.96096">
        <ele>279.573569</ele>
        <time>2022-05-18T01:37:06.387Z</time>
      </trkpt>
      <trkpt lat="43.65178" lon="17.9611">
        <ele>279.573569</ele>
        <time>2022-05-18T01:37:09.421Z</time>
      </trkpt>
      <trkpt lat="43.65151" lon="17.96159">
        <ele>279.573569</ele>
        <time>2022-05-18T01:37:19.807Z</time>
      </trkpt>
      <trkpt lat="43.65142" lon="17.96171">
        <ele>279.573569</ele>
        <time>2022-05-18T01:37:22.940Z</time>
      </trkpt>
      <trkpt lat="43.65139" lon="17.96175">
        <ele>279.573569</ele>
        <time>2022-05-18T01:37:23.764Z</time>
      </trkpt>
      <trkpt lat="43.65126" lon="17.9619">
        <ele>279.573569</ele>
        <time>2022-05-18T01:37:27.745Z</time>
      </trkpt>
      <trkpt lat="43.65108" lon="17.96201">
        <ele>279.573569</ele>
        <time>2022-05-18T01:37:32.433Z</time>
      </trkpt>
    </trkseg>
  </trk>
</gpx>